<?xml version="1.0" encoding="UTF-8" standalone="no" ?>
<gpx xmlns="http://www.topografix.com/GPX/1/1" xmlns:xsi="http://www.w3.org/2001/XMLSchema-instance" xsi:schemaLocation="http://www.topografix.com/GPX/1/1 http://www.topografix.com/GPX/1/1/gpx.xsd" version="1.1" creator="VisuGPX - https://www.visugpx.com">
  <metadata>
    <name>sortie 05/01/22</name>
    <desc><![CDATA[C'est très gras et par endroits il a fallu pousser le vélo, la roue arrière patinait et 
 n'entraînait plus. De plus par deux fois, les genoux ont oublié que la prière c'est le vendredi ..... mais les bains de boue sont très bons pour la peau.]]></desc>
  </metadata>
  <trk>
    <name><![CDATA[2022-01-05 09:58]]></name>
    <desc><![CDATA[<h1>OruxMaps</h1><br /><hr align="center" width="480" style="height: 2px; width: 517px"/><h2>Nom: 2022-01-05 09:58</h2><br /><p>Temps de départ: 01/05/2022 09:57</p><p>Temps d'arrivée: 01/05/2022 11:25</p><p>Distance: 19,2km (01:27)</p><p>Temps déplacement: 01:12</p><p>Vitesse moyenne: 13,1km/h</p><p>Vitesse moyenne: 15,9km/h</p><p>Vitess Max.: 47,9km/h</p><p>Altitude minimale: 219m</p><p>Altitude maximale: 336m</p><p>Vitesse d'élévation: 568,1m/h</p><p>Vitesse de descente: -764,3m/h</p><p>Gain Altitude: 384m</p><p>Perte Altitude: -388m</p><p>Temps d'élévation: 00:40</p><p>Temps de descente: 00:30</p><hr align="center" width="480" style="height: 2px; width: 517px"/>]]></desc>
    <trkseg>
      <trkpt lat="47.68617" lon="6.04582">
        <ele>241.38</ele>
        <time>2022-01-05T08:57:47Z</time>
      </trkpt>
      <trkpt lat="47.68637" lon="6.04579">
        <ele>240.61</ele>
        <time>2022-01-05T08:58:21Z</time>
      </trkpt>
      <trkpt lat="47.68616" lon="6.04588">
        <ele>239.04</ele>
        <time>2022-01-05T08:59:03Z</time>
      </trkpt>
      <trkpt lat="47.68631" lon="6.0457">
        <ele>240.3</ele>
        <time>2022-01-05T08:59:42Z</time>
      </trkpt>
      <trkpt lat="47.68631" lon="6.04543">
        <ele>242.44</ele>
        <time>2022-01-05T09:00:31Z</time>
      </trkpt>
      <trkpt lat="47.68651" lon="6.04548">
        <ele>239.75</ele>
        <time>2022-01-05T09:00:47Z</time>
      </trkpt>
      <trkpt lat="47.68667" lon="6.04566">
        <ele>239.82</ele>
        <time>2022-01-05T09:00:55Z</time>
      </trkpt>
      <trkpt lat="47.68681" lon="6.04586">
        <ele>239.33</ele>
        <time>2022-01-05T09:01:03Z</time>
      </trkpt>
      <trkpt lat="47.68696" lon="6.04605">
        <ele>238.91</ele>
        <time>2022-01-05T09:01:11Z</time>
      </trkpt>
      <trkpt lat="47.68708" lon="6.04626">
        <ele>238.93</ele>
        <time>2022-01-05T09:01:19Z</time>
      </trkpt>
      <trkpt lat="47.68719" lon="6.04649">
        <ele>238.97</ele>
        <time>2022-01-05T09:01:26Z</time>
      </trkpt>
      <trkpt lat="47.68735" lon="6.04667">
        <ele>239.74</ele>
        <time>2022-01-05T09:01:33Z</time>
      </trkpt>
      <trkpt lat="47.68754" lon="6.0467">
        <ele>240.22</ele>
        <time>2022-01-05T09:01:38Z</time>
      </trkpt>
      <trkpt lat="47.68765" lon="6.04692">
        <ele>241.78</ele>
        <time>2022-01-05T09:01:43Z</time>
      </trkpt>
      <trkpt lat="47.6878" lon="6.04706">
        <ele>242.88</ele>
        <time>2022-01-05T09:01:48Z</time>
      </trkpt>
      <trkpt lat="47.68789" lon="6.04731">
        <ele>243.05</ele>
        <time>2022-01-05T09:01:52Z</time>
      </trkpt>
      <trkpt lat="47.68789" lon="6.0476">
        <ele>242.25</ele>
        <time>2022-01-05T09:01:55Z</time>
      </trkpt>
      <trkpt lat="47.6879" lon="6.04788">
        <ele>241.48</ele>
        <time>2022-01-05T09:01:58Z</time>
      </trkpt>
      <trkpt lat="47.68782" lon="6.04824">
        <ele>241.88</ele>
        <time>2022-01-05T09:02:01Z</time>
      </trkpt>
      <trkpt lat="47.68781" lon="6.04857">
        <ele>242.62</ele>
        <time>2022-01-05T09:02:04Z</time>
      </trkpt>
      <trkpt lat="47.68788" lon="6.04889">
        <ele>242</ele>
        <time>2022-01-05T09:02:08Z</time>
      </trkpt>
      <trkpt lat="47.68797" lon="6.04916">
        <ele>241.86</ele>
        <time>2022-01-05T09:02:13Z</time>
      </trkpt>
      <trkpt lat="47.68816" lon="6.04911">
        <ele>235.38</ele>
        <time>2022-01-05T09:02:32Z</time>
      </trkpt>
      <trkpt lat="47.68835" lon="6.04907">
        <ele>235.12</ele>
        <time>2022-01-05T09:02:36Z</time>
      </trkpt>
      <trkpt lat="47.6885" lon="6.04924">
        <ele>235.95</ele>
        <time>2022-01-05T09:02:40Z</time>
      </trkpt>
      <trkpt lat="47.68862" lon="6.04946">
        <ele>236.5</ele>
        <time>2022-01-05T09:02:45Z</time>
      </trkpt>
      <trkpt lat="47.68875" lon="6.04971">
        <ele>236.76</ele>
        <time>2022-01-05T09:02:51Z</time>
      </trkpt>
      <trkpt lat="47.68888" lon="6.04994">
        <ele>236.9</ele>
        <time>2022-01-05T09:02:57Z</time>
      </trkpt>
      <trkpt lat="47.68903" lon="6.05012">
        <ele>237.38</ele>
        <time>2022-01-05T09:03:03Z</time>
      </trkpt>
      <trkpt lat="47.6892" lon="6.05027">
        <ele>237.66</ele>
        <time>2022-01-05T09:03:09Z</time>
      </trkpt>
      <trkpt lat="47.68938" lon="6.05038">
        <ele>238.27</ele>
        <time>2022-01-05T09:03:16Z</time>
      </trkpt>
      <trkpt lat="47.68956" lon="6.05049">
        <ele>238.87</ele>
        <time>2022-01-05T09:03:23Z</time>
      </trkpt>
      <trkpt lat="47.68973" lon="6.0506">
        <ele>238.51</ele>
        <time>2022-01-05T09:03:32Z</time>
      </trkpt>
      <trkpt lat="47.68993" lon="6.0506">
        <ele>239.8</ele>
        <time>2022-01-05T09:03:41Z</time>
      </trkpt>
      <trkpt lat="47.6901" lon="6.05076">
        <ele>241.29</ele>
        <time>2022-01-05T09:03:49Z</time>
      </trkpt>
      <trkpt lat="47.69026" lon="6.0509">
        <ele>243.61</ele>
        <time>2022-01-05T09:03:58Z</time>
      </trkpt>
      <trkpt lat="47.69044" lon="6.05103">
        <ele>245.78</ele>
        <time>2022-01-05T09:04:08Z</time>
      </trkpt>
      <trkpt lat="47.6906" lon="6.05118">
        <ele>245.58</ele>
        <time>2022-01-05T09:04:19Z</time>
      </trkpt>
      <trkpt lat="47.69077" lon="6.0513">
        <ele>246.08</ele>
        <time>2022-01-05T09:04:29Z</time>
      </trkpt>
      <trkpt lat="47.69094" lon="6.05142">
        <ele>247.1</ele>
        <time>2022-01-05T09:04:39Z</time>
      </trkpt>
      <trkpt lat="47.69112" lon="6.05153">
        <ele>248.28</ele>
        <time>2022-01-05T09:04:48Z</time>
      </trkpt>
      <trkpt lat="47.6913" lon="6.05164">
        <ele>250.32</ele>
        <time>2022-01-05T09:04:57Z</time>
      </trkpt>
      <trkpt lat="47.69147" lon="6.05178">
        <ele>251.31</ele>
        <time>2022-01-05T09:05:05Z</time>
      </trkpt>
      <trkpt lat="47.69162" lon="6.05197">
        <ele>251.57</ele>
        <time>2022-01-05T09:05:12Z</time>
      </trkpt>
      <trkpt lat="47.69177" lon="6.05215">
        <ele>252.33</ele>
        <time>2022-01-05T09:05:19Z</time>
      </trkpt>
      <trkpt lat="47.69195" lon="6.0523">
        <ele>252.67</ele>
        <time>2022-01-05T09:05:26Z</time>
      </trkpt>
      <trkpt lat="47.6921" lon="6.05244">
        <ele>253.21</ele>
        <time>2022-01-05T09:05:32Z</time>
      </trkpt>
      <trkpt lat="47.69226" lon="6.05263">
        <ele>253.89</ele>
        <time>2022-01-05T09:05:38Z</time>
      </trkpt>
      <trkpt lat="47.69243" lon="6.05278">
        <ele>254.74</ele>
        <time>2022-01-05T09:05:44Z</time>
      </trkpt>
      <trkpt lat="47.69257" lon="6.05296">
        <ele>254.41</ele>
        <time>2022-01-05T09:05:49Z</time>
      </trkpt>
      <trkpt lat="47.69274" lon="6.05316">
        <ele>254.66</ele>
        <time>2022-01-05T09:05:55Z</time>
      </trkpt>
      <trkpt lat="47.69291" lon="6.05332">
        <ele>255.02</ele>
        <time>2022-01-05T09:06:00Z</time>
      </trkpt>
      <trkpt lat="47.69308" lon="6.0535">
        <ele>255.7</ele>
        <time>2022-01-05T09:06:05Z</time>
      </trkpt>
      <trkpt lat="47.69324" lon="6.05364">
        <ele>256.01</ele>
        <time>2022-01-05T09:06:10Z</time>
      </trkpt>
      <trkpt lat="47.69343" lon="6.05377">
        <ele>256.88</ele>
        <time>2022-01-05T09:06:16Z</time>
      </trkpt>
      <trkpt lat="47.69361" lon="6.05391">
        <ele>256.99</ele>
        <time>2022-01-05T09:06:22Z</time>
      </trkpt>
      <trkpt lat="47.6938" lon="6.05405">
        <ele>257.15</ele>
        <time>2022-01-05T09:06:28Z</time>
      </trkpt>
      <trkpt lat="47.69399" lon="6.05417">
        <ele>256.82</ele>
        <time>2022-01-05T09:06:34Z</time>
      </trkpt>
      <trkpt lat="47.69417" lon="6.05433">
        <ele>256.8</ele>
        <time>2022-01-05T09:06:40Z</time>
      </trkpt>
      <trkpt lat="47.69435" lon="6.05448">
        <ele>256.91</ele>
        <time>2022-01-05T09:06:46Z</time>
      </trkpt>
      <trkpt lat="47.69452" lon="6.05465">
        <ele>256.79</ele>
        <time>2022-01-05T09:06:52Z</time>
      </trkpt>
      <trkpt lat="47.69469" lon="6.05482">
        <ele>257.13</ele>
        <time>2022-01-05T09:06:58Z</time>
      </trkpt>
      <trkpt lat="47.69484" lon="6.05499">
        <ele>257.59</ele>
        <time>2022-01-05T09:07:04Z</time>
      </trkpt>
      <trkpt lat="47.69498" lon="6.05516">
        <ele>257.7</ele>
        <time>2022-01-05T09:07:10Z</time>
      </trkpt>
      <trkpt lat="47.69512" lon="6.05537">
        <ele>258.77</ele>
        <time>2022-01-05T09:07:17Z</time>
      </trkpt>
      <trkpt lat="47.69525" lon="6.05555">
        <ele>259.6</ele>
        <time>2022-01-05T09:07:24Z</time>
      </trkpt>
      <trkpt lat="47.69539" lon="6.05574">
        <ele>259.56</ele>
        <time>2022-01-05T09:07:31Z</time>
      </trkpt>
      <trkpt lat="47.69552" lon="6.05597">
        <ele>259.54</ele>
        <time>2022-01-05T09:07:38Z</time>
      </trkpt>
      <trkpt lat="47.69563" lon="6.05623">
        <ele>259.89</ele>
        <time>2022-01-05T09:07:45Z</time>
      </trkpt>
      <trkpt lat="47.69577" lon="6.0564">
        <ele>260.14</ele>
        <time>2022-01-05T09:07:52Z</time>
      </trkpt>
      <trkpt lat="47.69596" lon="6.05639">
        <ele>260.77</ele>
        <time>2022-01-05T09:07:58Z</time>
      </trkpt>
      <trkpt lat="47.69616" lon="6.05646">
        <ele>261.3</ele>
        <time>2022-01-05T09:08:03Z</time>
      </trkpt>
      <trkpt lat="47.69635" lon="6.05653">
        <ele>261.63</ele>
        <time>2022-01-05T09:08:08Z</time>
      </trkpt>
      <trkpt lat="47.69653" lon="6.0566">
        <ele>260.93</ele>
        <time>2022-01-05T09:08:13Z</time>
      </trkpt>
      <trkpt lat="47.69675" lon="6.05667">
        <ele>260.56</ele>
        <time>2022-01-05T09:08:18Z</time>
      </trkpt>
      <trkpt lat="47.69692" lon="6.05675">
        <ele>260.66</ele>
        <time>2022-01-05T09:08:22Z</time>
      </trkpt>
      <trkpt lat="47.6971" lon="6.05683">
        <ele>260.83</ele>
        <time>2022-01-05T09:08:26Z</time>
      </trkpt>
      <trkpt lat="47.6973" lon="6.05692">
        <ele>260.47</ele>
        <time>2022-01-05T09:08:30Z</time>
      </trkpt>
      <trkpt lat="47.69751" lon="6.05701">
        <ele>260.05</ele>
        <time>2022-01-05T09:08:34Z</time>
      </trkpt>
      <trkpt lat="47.6977" lon="6.05709">
        <ele>259.54</ele>
        <time>2022-01-05T09:08:37Z</time>
      </trkpt>
      <trkpt lat="47.69789" lon="6.05718">
        <ele>258.92</ele>
        <time>2022-01-05T09:08:40Z</time>
      </trkpt>
      <trkpt lat="47.69808" lon="6.0573">
        <ele>258.54</ele>
        <time>2022-01-05T09:08:43Z</time>
      </trkpt>
      <trkpt lat="47.69825" lon="6.05748">
        <ele>258.41</ele>
        <time>2022-01-05T09:08:46Z</time>
      </trkpt>
      <trkpt lat="47.69842" lon="6.05762">
        <ele>257.91</ele>
        <time>2022-01-05T09:08:49Z</time>
      </trkpt>
      <trkpt lat="47.69855" lon="6.05742">
        <ele>258.54</ele>
        <time>2022-01-05T09:08:53Z</time>
      </trkpt>
      <trkpt lat="47.69846" lon="6.05714">
        <ele>259.04</ele>
        <time>2022-01-05T09:08:57Z</time>
      </trkpt>
      <trkpt lat="47.69845" lon="6.05683">
        <ele>259.07</ele>
        <time>2022-01-05T09:09:01Z</time>
      </trkpt>
      <trkpt lat="47.69846" lon="6.05651">
        <ele>258.68</ele>
        <time>2022-01-05T09:09:04Z</time>
      </trkpt>
      <trkpt lat="47.69848" lon="6.0561">
        <ele>257.18</ele>
        <time>2022-01-05T09:09:07Z</time>
      </trkpt>
      <trkpt lat="47.69852" lon="6.05578">
        <ele>254.98</ele>
        <time>2022-01-05T09:09:09Z</time>
      </trkpt>
      <trkpt lat="47.69854" lon="6.05547">
        <ele>252.96</ele>
        <time>2022-01-05T09:09:11Z</time>
      </trkpt>
      <trkpt lat="47.69856" lon="6.05521">
        <ele>251.35</ele>
        <time>2022-01-05T09:09:13Z</time>
      </trkpt>
      <trkpt lat="47.69856" lon="6.05488">
        <ele>249.06</ele>
        <time>2022-01-05T09:09:16Z</time>
      </trkpt>
      <trkpt lat="47.69855" lon="6.05459">
        <ele>248.8</ele>
        <time>2022-01-05T09:09:20Z</time>
      </trkpt>
      <trkpt lat="47.69863" lon="6.05432">
        <ele>248.15</ele>
        <time>2022-01-05T09:09:29Z</time>
      </trkpt>
      <trkpt lat="47.69881" lon="6.05426">
        <ele>249.98</ele>
        <time>2022-01-05T09:09:37Z</time>
      </trkpt>
      <trkpt lat="47.69899" lon="6.05419">
        <ele>250.02</ele>
        <time>2022-01-05T09:09:42Z</time>
      </trkpt>
      <trkpt lat="47.69916" lon="6.05411">
        <ele>250.3</ele>
        <time>2022-01-05T09:09:48Z</time>
      </trkpt>
      <trkpt lat="47.69936" lon="6.05402">
        <ele>252.25</ele>
        <time>2022-01-05T09:09:55Z</time>
      </trkpt>
      <trkpt lat="47.69954" lon="6.05392">
        <ele>252.54</ele>
        <time>2022-01-05T09:10:02Z</time>
      </trkpt>
      <trkpt lat="47.69974" lon="6.05385">
        <ele>253.28</ele>
        <time>2022-01-05T09:10:08Z</time>
      </trkpt>
      <trkpt lat="47.69992" lon="6.05381">
        <ele>252.85</ele>
        <time>2022-01-05T09:10:13Z</time>
      </trkpt>
      <trkpt lat="47.70013" lon="6.05378">
        <ele>252.5</ele>
        <time>2022-01-05T09:10:18Z</time>
      </trkpt>
      <trkpt lat="47.70032" lon="6.05376">
        <ele>251.99</ele>
        <time>2022-01-05T09:10:22Z</time>
      </trkpt>
      <trkpt lat="47.70055" lon="6.05376">
        <ele>251.96</ele>
        <time>2022-01-05T09:10:26Z</time>
      </trkpt>
      <trkpt lat="47.70074" lon="6.05376">
        <ele>252</ele>
        <time>2022-01-05T09:10:29Z</time>
      </trkpt>
      <trkpt lat="47.70093" lon="6.05373">
        <ele>252.11</ele>
        <time>2022-01-05T09:10:32Z</time>
      </trkpt>
      <trkpt lat="47.70114" lon="6.05365">
        <ele>251.17</ele>
        <time>2022-01-05T09:10:35Z</time>
      </trkpt>
      <trkpt lat="47.70135" lon="6.05357">
        <ele>250.62</ele>
        <time>2022-01-05T09:10:38Z</time>
      </trkpt>
      <trkpt lat="47.70155" lon="6.05347">
        <ele>249.88</ele>
        <time>2022-01-05T09:10:41Z</time>
      </trkpt>
      <trkpt lat="47.70174" lon="6.05337">
        <ele>249.87</ele>
        <time>2022-01-05T09:10:44Z</time>
      </trkpt>
      <trkpt lat="47.70193" lon="6.05326">
        <ele>250.75</ele>
        <time>2022-01-05T09:10:47Z</time>
      </trkpt>
      <trkpt lat="47.70208" lon="6.05313">
        <ele>251.23</ele>
        <time>2022-01-05T09:10:50Z</time>
      </trkpt>
      <trkpt lat="47.70224" lon="6.05291">
        <ele>251.56</ele>
        <time>2022-01-05T09:10:54Z</time>
      </trkpt>
      <trkpt lat="47.70241" lon="6.05283">
        <ele>253.78</ele>
        <time>2022-01-05T09:11:09Z</time>
      </trkpt>
      <trkpt lat="47.70261" lon="6.05275">
        <ele>254.75</ele>
        <time>2022-01-05T09:11:15Z</time>
      </trkpt>
      <trkpt lat="47.70279" lon="6.05272">
        <ele>255.32</ele>
        <time>2022-01-05T09:11:22Z</time>
      </trkpt>
      <trkpt lat="47.70298" lon="6.05269">
        <ele>255.7</ele>
        <time>2022-01-05T09:11:30Z</time>
      </trkpt>
      <trkpt lat="47.70319" lon="6.05268">
        <ele>261.98</ele>
        <time>2022-01-05T09:11:45Z</time>
      </trkpt>
      <trkpt lat="47.70338" lon="6.05264">
        <ele>264.77</ele>
        <time>2022-01-05T09:11:54Z</time>
      </trkpt>
      <trkpt lat="47.70356" lon="6.05261">
        <ele>265.59</ele>
        <time>2022-01-05T09:12:03Z</time>
      </trkpt>
      <trkpt lat="47.70374" lon="6.05265">
        <ele>265.99</ele>
        <time>2022-01-05T09:12:11Z</time>
      </trkpt>
      <trkpt lat="47.70391" lon="6.05277">
        <ele>263.7</ele>
        <time>2022-01-05T09:12:18Z</time>
      </trkpt>
      <trkpt lat="47.70408" lon="6.05284">
        <ele>265.01</ele>
        <time>2022-01-05T09:12:28Z</time>
      </trkpt>
      <trkpt lat="47.70428" lon="6.05288">
        <ele>266.69</ele>
        <time>2022-01-05T09:12:38Z</time>
      </trkpt>
      <trkpt lat="47.70446" lon="6.05284">
        <ele>269.36</ele>
        <time>2022-01-05T09:12:49Z</time>
      </trkpt>
      <trkpt lat="47.70461" lon="6.053">
        <ele>269.55</ele>
        <time>2022-01-05T09:12:57Z</time>
      </trkpt>
      <trkpt lat="47.70477" lon="6.05315">
        <ele>272.33</ele>
        <time>2022-01-05T09:13:07Z</time>
      </trkpt>
      <trkpt lat="47.70494" lon="6.05329">
        <ele>272.36</ele>
        <time>2022-01-05T09:13:15Z</time>
      </trkpt>
      <trkpt lat="47.70511" lon="6.05341">
        <ele>270.45</ele>
        <time>2022-01-05T09:13:23Z</time>
      </trkpt>
      <trkpt lat="47.7053" lon="6.05345">
        <ele>268.79</ele>
        <time>2022-01-05T09:13:30Z</time>
      </trkpt>
      <trkpt lat="47.70547" lon="6.05354">
        <ele>268.49</ele>
        <time>2022-01-05T09:13:39Z</time>
      </trkpt>
      <trkpt lat="47.70567" lon="6.05362">
        <ele>267.96</ele>
        <time>2022-01-05T09:13:47Z</time>
      </trkpt>
      <trkpt lat="47.70586" lon="6.05369">
        <ele>267</ele>
        <time>2022-01-05T09:13:54Z</time>
      </trkpt>
      <trkpt lat="47.70604" lon="6.05378">
        <ele>265.52</ele>
        <time>2022-01-05T09:14:01Z</time>
      </trkpt>
      <trkpt lat="47.70622" lon="6.0539">
        <ele>265.27</ele>
        <time>2022-01-05T09:14:09Z</time>
      </trkpt>
      <trkpt lat="47.70642" lon="6.05388">
        <ele>265.24</ele>
        <time>2022-01-05T09:14:17Z</time>
      </trkpt>
      <trkpt lat="47.7066" lon="6.05393">
        <ele>264.77</ele>
        <time>2022-01-05T09:14:26Z</time>
      </trkpt>
      <trkpt lat="47.70673" lon="6.05416">
        <ele>263.07</ele>
        <time>2022-01-05T09:14:33Z</time>
      </trkpt>
      <trkpt lat="47.70693" lon="6.05415">
        <ele>262.62</ele>
        <time>2022-01-05T09:14:42Z</time>
      </trkpt>
      <trkpt lat="47.70712" lon="6.05412">
        <ele>261.75</ele>
        <time>2022-01-05T09:14:48Z</time>
      </trkpt>
      <trkpt lat="47.70731" lon="6.05412">
        <ele>261.42</ele>
        <time>2022-01-05T09:14:55Z</time>
      </trkpt>
      <trkpt lat="47.70751" lon="6.0541">
        <ele>260.59</ele>
        <time>2022-01-05T09:15:03Z</time>
      </trkpt>
      <trkpt lat="47.70771" lon="6.05414">
        <ele>261.72</ele>
        <time>2022-01-05T09:15:12Z</time>
      </trkpt>
      <trkpt lat="47.70789" lon="6.05421">
        <ele>260.95</ele>
        <time>2022-01-05T09:15:17Z</time>
      </trkpt>
      <trkpt lat="47.70805" lon="6.05406">
        <ele>261.03</ele>
        <time>2022-01-05T09:15:23Z</time>
      </trkpt>
      <trkpt lat="47.70803" lon="6.05377">
        <ele>261.13</ele>
        <time>2022-01-05T09:15:31Z</time>
      </trkpt>
      <trkpt lat="47.70805" lon="6.05346">
        <ele>260.43</ele>
        <time>2022-01-05T09:15:38Z</time>
      </trkpt>
      <trkpt lat="47.70804" lon="6.05318">
        <ele>261.55</ele>
        <time>2022-01-05T09:15:44Z</time>
      </trkpt>
      <trkpt lat="47.70803" lon="6.0529">
        <ele>262.14</ele>
        <time>2022-01-05T09:15:49Z</time>
      </trkpt>
      <trkpt lat="47.70803" lon="6.05262">
        <ele>262.55</ele>
        <time>2022-01-05T09:15:54Z</time>
      </trkpt>
      <trkpt lat="47.70806" lon="6.05232">
        <ele>263.62</ele>
        <time>2022-01-05T09:15:59Z</time>
      </trkpt>
      <trkpt lat="47.70807" lon="6.05202">
        <ele>264.7</ele>
        <time>2022-01-05T09:16:04Z</time>
      </trkpt>
      <trkpt lat="47.70809" lon="6.05175">
        <ele>264.62</ele>
        <time>2022-01-05T09:16:09Z</time>
      </trkpt>
      <trkpt lat="47.70814" lon="6.05147">
        <ele>265.06</ele>
        <time>2022-01-05T09:16:15Z</time>
      </trkpt>
      <trkpt lat="47.70818" lon="6.05118">
        <ele>264.16</ele>
        <time>2022-01-05T09:16:21Z</time>
      </trkpt>
      <trkpt lat="47.70821" lon="6.05091">
        <ele>264.29</ele>
        <time>2022-01-05T09:16:26Z</time>
      </trkpt>
      <trkpt lat="47.70822" lon="6.0506">
        <ele>263.5</ele>
        <time>2022-01-05T09:16:31Z</time>
      </trkpt>
      <trkpt lat="47.70824" lon="6.05033">
        <ele>263.02</ele>
        <time>2022-01-05T09:16:35Z</time>
      </trkpt>
      <trkpt lat="47.70826" lon="6.05005">
        <ele>262.7</ele>
        <time>2022-01-05T09:16:39Z</time>
      </trkpt>
      <trkpt lat="47.70827" lon="6.04972">
        <ele>262.89</ele>
        <time>2022-01-05T09:16:43Z</time>
      </trkpt>
      <trkpt lat="47.70831" lon="6.04943">
        <ele>261.96</ele>
        <time>2022-01-05T09:16:46Z</time>
      </trkpt>
      <trkpt lat="47.70832" lon="6.0491">
        <ele>261.59</ele>
        <time>2022-01-05T09:16:49Z</time>
      </trkpt>
      <trkpt lat="47.70834" lon="6.04871">
        <ele>260.52</ele>
        <time>2022-01-05T09:16:52Z</time>
      </trkpt>
      <trkpt lat="47.70838" lon="6.04832">
        <ele>259.22</ele>
        <time>2022-01-05T09:16:55Z</time>
      </trkpt>
      <trkpt lat="47.70841" lon="6.04793">
        <ele>257.32</ele>
        <time>2022-01-05T09:16:58Z</time>
      </trkpt>
      <trkpt lat="47.70844" lon="6.04754">
        <ele>255.71</ele>
        <time>2022-01-05T09:17:01Z</time>
      </trkpt>
      <trkpt lat="47.70848" lon="6.04715">
        <ele>253.87</ele>
        <time>2022-01-05T09:17:04Z</time>
      </trkpt>
      <trkpt lat="47.70852" lon="6.04679">
        <ele>251.95</ele>
        <time>2022-01-05T09:17:07Z</time>
      </trkpt>
      <trkpt lat="47.70856" lon="6.04641">
        <ele>249.09</ele>
        <time>2022-01-05T09:17:10Z</time>
      </trkpt>
      <trkpt lat="47.70858" lon="6.04608">
        <ele>246.71</ele>
        <time>2022-01-05T09:17:13Z</time>
      </trkpt>
      <trkpt lat="47.70865" lon="6.0458">
        <ele>244.88</ele>
        <time>2022-01-05T09:17:16Z</time>
      </trkpt>
      <trkpt lat="47.7088" lon="6.04566">
        <ele>243.25</ele>
        <time>2022-01-05T09:17:19Z</time>
      </trkpt>
      <trkpt lat="47.70902" lon="6.04559">
        <ele>241.98</ele>
        <time>2022-01-05T09:17:22Z</time>
      </trkpt>
      <trkpt lat="47.7092" lon="6.04556">
        <ele>241.19</ele>
        <time>2022-01-05T09:17:25Z</time>
      </trkpt>
      <trkpt lat="47.7094" lon="6.0455">
        <ele>239.48</ele>
        <time>2022-01-05T09:17:29Z</time>
      </trkpt>
      <trkpt lat="47.70963" lon="6.0455">
        <ele>238.11</ele>
        <time>2022-01-05T09:17:34Z</time>
      </trkpt>
      <trkpt lat="47.70984" lon="6.04562">
        <ele>236.11</ele>
        <time>2022-01-05T09:17:39Z</time>
      </trkpt>
      <trkpt lat="47.71003" lon="6.04574">
        <ele>234.49</ele>
        <time>2022-01-05T09:17:43Z</time>
      </trkpt>
      <trkpt lat="47.71022" lon="6.04575">
        <ele>232.12</ele>
        <time>2022-01-05T09:17:48Z</time>
      </trkpt>
      <trkpt lat="47.71045" lon="6.0457">
        <ele>230.21</ele>
        <time>2022-01-05T09:17:52Z</time>
      </trkpt>
      <trkpt lat="47.71063" lon="6.04569">
        <ele>229.98</ele>
        <time>2022-01-05T09:17:55Z</time>
      </trkpt>
      <trkpt lat="47.71084" lon="6.04568">
        <ele>230.13</ele>
        <time>2022-01-05T09:17:59Z</time>
      </trkpt>
      <trkpt lat="47.71104" lon="6.04566">
        <ele>231.24</ele>
        <time>2022-01-05T09:18:03Z</time>
      </trkpt>
      <trkpt lat="47.71123" lon="6.04564">
        <ele>232.2</ele>
        <time>2022-01-05T09:18:11Z</time>
      </trkpt>
      <trkpt lat="47.71145" lon="6.0456">
        <ele>232.06</ele>
        <time>2022-01-05T09:18:17Z</time>
      </trkpt>
      <trkpt lat="47.71164" lon="6.0456">
        <ele>232.85</ele>
        <time>2022-01-05T09:18:21Z</time>
      </trkpt>
      <trkpt lat="47.71182" lon="6.0455">
        <ele>234.06</ele>
        <time>2022-01-05T09:18:27Z</time>
      </trkpt>
      <trkpt lat="47.71201" lon="6.0454">
        <ele>237.16</ele>
        <time>2022-01-05T09:18:31Z</time>
      </trkpt>
      <trkpt lat="47.71225" lon="6.04532">
        <ele>238.66</ele>
        <time>2022-01-05T09:18:35Z</time>
      </trkpt>
      <trkpt lat="47.71249" lon="6.04526">
        <ele>239.87</ele>
        <time>2022-01-05T09:18:39Z</time>
      </trkpt>
      <trkpt lat="47.71268" lon="6.04523">
        <ele>240.13</ele>
        <time>2022-01-05T09:18:42Z</time>
      </trkpt>
      <trkpt lat="47.71293" lon="6.04525">
        <ele>240.61</ele>
        <time>2022-01-05T09:18:46Z</time>
      </trkpt>
      <trkpt lat="47.71316" lon="6.04526">
        <ele>239.62</ele>
        <time>2022-01-05T09:18:49Z</time>
      </trkpt>
      <trkpt lat="47.71339" lon="6.04523">
        <ele>237.91</ele>
        <time>2022-01-05T09:18:52Z</time>
      </trkpt>
      <trkpt lat="47.7136" lon="6.04528">
        <ele>235.19</ele>
        <time>2022-01-05T09:18:56Z</time>
      </trkpt>
      <trkpt lat="47.7137" lon="6.04553">
        <ele>234.24</ele>
        <time>2022-01-05T09:19:03Z</time>
      </trkpt>
      <trkpt lat="47.71377" lon="6.04578">
        <ele>236.6</ele>
        <time>2022-01-05T09:19:09Z</time>
      </trkpt>
      <trkpt lat="47.71379" lon="6.04606">
        <ele>239.36</ele>
        <time>2022-01-05T09:19:14Z</time>
      </trkpt>
      <trkpt lat="47.71392" lon="6.04629">
        <ele>240.93</ele>
        <time>2022-01-05T09:19:21Z</time>
      </trkpt>
      <trkpt lat="47.71408" lon="6.04645">
        <ele>242.64</ele>
        <time>2022-01-05T09:19:28Z</time>
      </trkpt>
      <trkpt lat="47.71424" lon="6.04663">
        <ele>243.28</ele>
        <time>2022-01-05T09:19:33Z</time>
      </trkpt>
      <trkpt lat="47.71431" lon="6.0469">
        <ele>243.25</ele>
        <time>2022-01-05T09:19:38Z</time>
      </trkpt>
      <trkpt lat="47.7145" lon="6.04704">
        <ele>244.5</ele>
        <time>2022-01-05T09:19:44Z</time>
      </trkpt>
      <trkpt lat="47.71461" lon="6.04731">
        <ele>248.24</ele>
        <time>2022-01-05T09:19:50Z</time>
      </trkpt>
      <trkpt lat="47.71471" lon="6.04753">
        <ele>249.53</ele>
        <time>2022-01-05T09:19:54Z</time>
      </trkpt>
      <trkpt lat="47.7148" lon="6.0478">
        <ele>249.57</ele>
        <time>2022-01-05T09:19:58Z</time>
      </trkpt>
      <trkpt lat="47.71491" lon="6.04807">
        <ele>250.44</ele>
        <time>2022-01-05T09:20:04Z</time>
      </trkpt>
      <trkpt lat="47.71502" lon="6.04833">
        <ele>252.11</ele>
        <time>2022-01-05T09:20:10Z</time>
      </trkpt>
      <trkpt lat="47.7151" lon="6.04862">
        <ele>252.67</ele>
        <time>2022-01-05T09:20:15Z</time>
      </trkpt>
      <trkpt lat="47.7152" lon="6.04885">
        <ele>252.51</ele>
        <time>2022-01-05T09:20:19Z</time>
      </trkpt>
      <trkpt lat="47.71531" lon="6.04913">
        <ele>252.14</ele>
        <time>2022-01-05T09:20:24Z</time>
      </trkpt>
      <trkpt lat="47.71543" lon="6.04944">
        <ele>252.15</ele>
        <time>2022-01-05T09:20:29Z</time>
      </trkpt>
      <trkpt lat="47.71552" lon="6.04967">
        <ele>251.83</ele>
        <time>2022-01-05T09:20:33Z</time>
      </trkpt>
      <trkpt lat="47.71569" lon="6.04985">
        <ele>252.53</ele>
        <time>2022-01-05T09:20:39Z</time>
      </trkpt>
      <trkpt lat="47.71575" lon="6.05014">
        <ele>254.41</ele>
        <time>2022-01-05T09:20:44Z</time>
      </trkpt>
      <trkpt lat="47.71579" lon="6.05045">
        <ele>255.35</ele>
        <time>2022-01-05T09:20:48Z</time>
      </trkpt>
      <trkpt lat="47.71581" lon="6.05076">
        <ele>254.94</ele>
        <time>2022-01-05T09:20:52Z</time>
      </trkpt>
      <trkpt lat="47.71583" lon="6.05104">
        <ele>253.98</ele>
        <time>2022-01-05T09:20:56Z</time>
      </trkpt>
      <trkpt lat="47.71587" lon="6.05131">
        <ele>252.68</ele>
        <time>2022-01-05T09:21:00Z</time>
      </trkpt>
      <trkpt lat="47.71593" lon="6.05162">
        <ele>250.98</ele>
        <time>2022-01-05T09:21:05Z</time>
      </trkpt>
      <trkpt lat="47.71598" lon="6.05192">
        <ele>250.63</ele>
        <time>2022-01-05T09:21:10Z</time>
      </trkpt>
      <trkpt lat="47.71607" lon="6.05222">
        <ele>252.56</ele>
        <time>2022-01-05T09:21:16Z</time>
      </trkpt>
      <trkpt lat="47.71616" lon="6.05252">
        <ele>253.08</ele>
        <time>2022-01-05T09:21:21Z</time>
      </trkpt>
      <trkpt lat="47.71623" lon="6.05278">
        <ele>252.64</ele>
        <time>2022-01-05T09:21:25Z</time>
      </trkpt>
      <trkpt lat="47.71634" lon="6.05299">
        <ele>252.94</ele>
        <time>2022-01-05T09:21:30Z</time>
      </trkpt>
      <trkpt lat="47.71645" lon="6.05326">
        <ele>254.27</ele>
        <time>2022-01-05T09:21:37Z</time>
      </trkpt>
      <trkpt lat="47.71649" lon="6.05351">
        <ele>257.11</ele>
        <time>2022-01-05T09:21:43Z</time>
      </trkpt>
      <trkpt lat="47.71651" lon="6.0538">
        <ele>258.71</ele>
        <time>2022-01-05T09:21:48Z</time>
      </trkpt>
      <trkpt lat="47.71648" lon="6.0541">
        <ele>259.97</ele>
        <time>2022-01-05T09:21:54Z</time>
      </trkpt>
      <trkpt lat="47.71646" lon="6.05439">
        <ele>262.71</ele>
        <time>2022-01-05T09:22:00Z</time>
      </trkpt>
      <trkpt lat="47.71642" lon="6.05468">
        <ele>265.02</ele>
        <time>2022-01-05T09:22:07Z</time>
      </trkpt>
      <trkpt lat="47.71635" lon="6.05497">
        <ele>265.25</ele>
        <time>2022-01-05T09:22:13Z</time>
      </trkpt>
      <trkpt lat="47.71637" lon="6.05527">
        <ele>264.79</ele>
        <time>2022-01-05T09:22:18Z</time>
      </trkpt>
      <trkpt lat="47.71632" lon="6.05554">
        <ele>266.37</ele>
        <time>2022-01-05T09:22:26Z</time>
      </trkpt>
      <trkpt lat="47.71625" lon="6.05581">
        <ele>269.08</ele>
        <time>2022-01-05T09:22:33Z</time>
      </trkpt>
      <trkpt lat="47.71617" lon="6.0561">
        <ele>272.08</ele>
        <time>2022-01-05T09:22:39Z</time>
      </trkpt>
      <trkpt lat="47.71611" lon="6.05637">
        <ele>274.11</ele>
        <time>2022-01-05T09:22:45Z</time>
      </trkpt>
      <trkpt lat="47.71606" lon="6.05663">
        <ele>273.73</ele>
        <time>2022-01-05T09:22:50Z</time>
      </trkpt>
      <trkpt lat="47.71595" lon="6.05687">
        <ele>273.75</ele>
        <time>2022-01-05T09:22:56Z</time>
      </trkpt>
      <trkpt lat="47.71587" lon="6.05715">
        <ele>271.28</ele>
        <time>2022-01-05T09:23:03Z</time>
      </trkpt>
      <trkpt lat="47.71605" lon="6.05726">
        <ele>262.53</ele>
        <time>2022-01-05T09:23:13Z</time>
      </trkpt>
      <trkpt lat="47.71622" lon="6.05734">
        <ele>263.48</ele>
        <time>2022-01-05T09:23:24Z</time>
      </trkpt>
      <trkpt lat="47.71641" lon="6.05737">
        <ele>262.38</ele>
        <time>2022-01-05T09:23:32Z</time>
      </trkpt>
      <trkpt lat="47.7166" lon="6.0574">
        <ele>261.5</ele>
        <time>2022-01-05T09:23:39Z</time>
      </trkpt>
      <trkpt lat="47.71679" lon="6.05744">
        <ele>261.53</ele>
        <time>2022-01-05T09:23:47Z</time>
      </trkpt>
      <trkpt lat="47.71698" lon="6.05743">
        <ele>261.04</ele>
        <time>2022-01-05T09:23:51Z</time>
      </trkpt>
      <trkpt lat="47.71716" lon="6.05747">
        <ele>260.12</ele>
        <time>2022-01-05T09:23:57Z</time>
      </trkpt>
      <trkpt lat="47.71739" lon="6.05749">
        <ele>260.22</ele>
        <time>2022-01-05T09:24:04Z</time>
      </trkpt>
      <trkpt lat="47.71757" lon="6.05756">
        <ele>260.02</ele>
        <time>2022-01-05T09:24:11Z</time>
      </trkpt>
      <trkpt lat="47.71773" lon="6.0577">
        <ele>260.95</ele>
        <time>2022-01-05T09:24:16Z</time>
      </trkpt>
      <trkpt lat="47.7179" lon="6.05783">
        <ele>260.87</ele>
        <time>2022-01-05T09:24:22Z</time>
      </trkpt>
      <trkpt lat="47.71807" lon="6.05799">
        <ele>262.93</ele>
        <time>2022-01-05T09:24:28Z</time>
      </trkpt>
      <trkpt lat="47.71826" lon="6.05808">
        <ele>263.92</ele>
        <time>2022-01-05T09:24:32Z</time>
      </trkpt>
      <trkpt lat="47.71842" lon="6.0582">
        <ele>267.77</ele>
        <time>2022-01-05T09:24:39Z</time>
      </trkpt>
      <trkpt lat="47.71859" lon="6.05837">
        <ele>270.76</ele>
        <time>2022-01-05T09:24:46Z</time>
      </trkpt>
      <trkpt lat="47.71873" lon="6.05855">
        <ele>272.4</ele>
        <time>2022-01-05T09:24:56Z</time>
      </trkpt>
      <trkpt lat="47.71888" lon="6.0587">
        <ele>274.28</ele>
        <time>2022-01-05T09:25:03Z</time>
      </trkpt>
      <trkpt lat="47.71901" lon="6.05892">
        <ele>275.29</ele>
        <time>2022-01-05T09:25:10Z</time>
      </trkpt>
      <trkpt lat="47.71916" lon="6.05908">
        <ele>275.24</ele>
        <time>2022-01-05T09:25:19Z</time>
      </trkpt>
      <trkpt lat="47.71954" lon="6.05914">
        <ele>271.4</ele>
        <time>2022-01-05T09:25:32Z</time>
      </trkpt>
      <trkpt lat="47.71974" lon="6.05926">
        <ele>268.94</ele>
        <time>2022-01-05T09:25:38Z</time>
      </trkpt>
      <trkpt lat="47.7199" lon="6.0594">
        <ele>268.03</ele>
        <time>2022-01-05T09:25:43Z</time>
      </trkpt>
      <trkpt lat="47.72003" lon="6.0596">
        <ele>268.29</ele>
        <time>2022-01-05T09:25:47Z</time>
      </trkpt>
      <trkpt lat="47.7202" lon="6.05969">
        <ele>267.62</ele>
        <time>2022-01-05T09:25:52Z</time>
      </trkpt>
      <trkpt lat="47.7204" lon="6.05981">
        <ele>264.81</ele>
        <time>2022-01-05T09:25:58Z</time>
      </trkpt>
      <trkpt lat="47.72056" lon="6.06001">
        <ele>262.28</ele>
        <time>2022-01-05T09:26:04Z</time>
      </trkpt>
      <trkpt lat="47.72074" lon="6.06012">
        <ele>261.6</ele>
        <time>2022-01-05T09:26:08Z</time>
      </trkpt>
      <trkpt lat="47.72094" lon="6.06024">
        <ele>261.25</ele>
        <time>2022-01-05T09:26:12Z</time>
      </trkpt>
      <trkpt lat="47.72116" lon="6.06036">
        <ele>260.01</ele>
        <time>2022-01-05T09:26:16Z</time>
      </trkpt>
      <trkpt lat="47.72133" lon="6.06044">
        <ele>258.98</ele>
        <time>2022-01-05T09:26:19Z</time>
      </trkpt>
      <trkpt lat="47.72152" lon="6.06058">
        <ele>260.12</ele>
        <time>2022-01-05T09:26:24Z</time>
      </trkpt>
      <trkpt lat="47.72164" lon="6.06084">
        <ele>260.05</ele>
        <time>2022-01-05T09:26:29Z</time>
      </trkpt>
      <trkpt lat="47.72179" lon="6.06105">
        <ele>259.74</ele>
        <time>2022-01-05T09:26:34Z</time>
      </trkpt>
      <trkpt lat="47.7219" lon="6.06128">
        <ele>255.7</ele>
        <time>2022-01-05T09:26:41Z</time>
      </trkpt>
      <trkpt lat="47.72229" lon="6.06153">
        <ele>250</ele>
        <time>2022-01-05T09:27:07Z</time>
      </trkpt>
      <trkpt lat="47.7225" lon="6.06161">
        <ele>248.2</ele>
        <time>2022-01-05T09:27:25Z</time>
      </trkpt>
      <trkpt lat="47.7227" lon="6.06158">
        <ele>247.97</ele>
        <time>2022-01-05T09:27:30Z</time>
      </trkpt>
      <trkpt lat="47.72284" lon="6.06141">
        <ele>247.21</ele>
        <time>2022-01-05T09:28:17Z</time>
      </trkpt>
      <trkpt lat="47.72295" lon="6.06118">
        <ele>248.01</ele>
        <time>2022-01-05T09:28:23Z</time>
      </trkpt>
      <trkpt lat="47.72308" lon="6.06095">
        <ele>247.9</ele>
        <time>2022-01-05T09:28:29Z</time>
      </trkpt>
      <trkpt lat="47.72321" lon="6.06072">
        <ele>248.19</ele>
        <time>2022-01-05T09:28:33Z</time>
      </trkpt>
      <trkpt lat="47.72339" lon="6.06053">
        <ele>248.54</ele>
        <time>2022-01-05T09:28:36Z</time>
      </trkpt>
      <trkpt lat="47.72348" lon="6.06027">
        <ele>249.31</ele>
        <time>2022-01-05T09:28:40Z</time>
      </trkpt>
      <trkpt lat="47.72353" lon="6.05986">
        <ele>249.76</ele>
        <time>2022-01-05T09:28:43Z</time>
      </trkpt>
      <trkpt lat="47.72363" lon="6.05963">
        <ele>249.75</ele>
        <time>2022-01-05T09:28:45Z</time>
      </trkpt>
      <trkpt lat="47.72378" lon="6.05935">
        <ele>248.64</ele>
        <time>2022-01-05T09:28:48Z</time>
      </trkpt>
      <trkpt lat="47.72395" lon="6.05921">
        <ele>248.15</ele>
        <time>2022-01-05T09:28:50Z</time>
      </trkpt>
      <trkpt lat="47.72419" lon="6.05906">
        <ele>248.15</ele>
        <time>2022-01-05T09:28:52Z</time>
      </trkpt>
      <trkpt lat="47.72439" lon="6.05883">
        <ele>248.55</ele>
        <time>2022-01-05T09:28:54Z</time>
      </trkpt>
      <trkpt lat="47.72454" lon="6.05858">
        <ele>248.78</ele>
        <time>2022-01-05T09:28:56Z</time>
      </trkpt>
      <trkpt lat="47.72471" lon="6.05833">
        <ele>249.11</ele>
        <time>2022-01-05T09:28:58Z</time>
      </trkpt>
      <trkpt lat="47.72485" lon="6.05809">
        <ele>249.32</ele>
        <time>2022-01-05T09:29:00Z</time>
      </trkpt>
      <trkpt lat="47.725" lon="6.05778">
        <ele>249.58</ele>
        <time>2022-01-05T09:29:03Z</time>
      </trkpt>
      <trkpt lat="47.72513" lon="6.05753">
        <ele>249.6</ele>
        <time>2022-01-05T09:29:07Z</time>
      </trkpt>
      <trkpt lat="47.72522" lon="6.05724">
        <ele>249.33</ele>
        <time>2022-01-05T09:29:10Z</time>
      </trkpt>
      <trkpt lat="47.7254" lon="6.0569">
        <ele>249.1</ele>
        <time>2022-01-05T09:29:13Z</time>
      </trkpt>
      <trkpt lat="47.72553" lon="6.05672">
        <ele>248.64</ele>
        <time>2022-01-05T09:29:15Z</time>
      </trkpt>
      <trkpt lat="47.72567" lon="6.05647">
        <ele>248.1</ele>
        <time>2022-01-05T09:29:18Z</time>
      </trkpt>
      <trkpt lat="47.72574" lon="6.05614">
        <ele>248.11</ele>
        <time>2022-01-05T09:29:22Z</time>
      </trkpt>
      <trkpt lat="47.72578" lon="6.05585">
        <ele>248.23</ele>
        <time>2022-01-05T09:29:25Z</time>
      </trkpt>
      <trkpt lat="47.72585" lon="6.05558">
        <ele>245.86</ele>
        <time>2022-01-05T09:29:28Z</time>
      </trkpt>
      <trkpt lat="47.72594" lon="6.05533">
        <ele>242.99</ele>
        <time>2022-01-05T09:29:31Z</time>
      </trkpt>
      <trkpt lat="47.72607" lon="6.05509">
        <ele>239.75</ele>
        <time>2022-01-05T09:29:35Z</time>
      </trkpt>
      <trkpt lat="47.72612" lon="6.05478">
        <ele>237.43</ele>
        <time>2022-01-05T09:29:40Z</time>
      </trkpt>
      <trkpt lat="47.72622" lon="6.05455">
        <ele>236.16</ele>
        <time>2022-01-05T09:29:43Z</time>
      </trkpt>
      <trkpt lat="47.72636" lon="6.05432">
        <ele>236.51</ele>
        <time>2022-01-05T09:29:46Z</time>
      </trkpt>
      <trkpt lat="47.72647" lon="6.05405">
        <ele>237.68</ele>
        <time>2022-01-05T09:29:49Z</time>
      </trkpt>
      <trkpt lat="47.72654" lon="6.0537">
        <ele>238.78</ele>
        <time>2022-01-05T09:29:52Z</time>
      </trkpt>
      <trkpt lat="47.72664" lon="6.05344">
        <ele>239.74</ele>
        <time>2022-01-05T09:29:55Z</time>
      </trkpt>
      <trkpt lat="47.72679" lon="6.05322">
        <ele>240.54</ele>
        <time>2022-01-05T09:29:58Z</time>
      </trkpt>
      <trkpt lat="47.72698" lon="6.05311">
        <ele>240.86</ele>
        <time>2022-01-05T09:30:01Z</time>
      </trkpt>
      <trkpt lat="47.72716" lon="6.05319">
        <ele>240.58</ele>
        <time>2022-01-05T09:30:03Z</time>
      </trkpt>
      <trkpt lat="47.72736" lon="6.05321">
        <ele>240.81</ele>
        <time>2022-01-05T09:30:05Z</time>
      </trkpt>
      <trkpt lat="47.72763" lon="6.05322">
        <ele>239.96</ele>
        <time>2022-01-05T09:30:08Z</time>
      </trkpt>
      <trkpt lat="47.72788" lon="6.05332">
        <ele>238.56</ele>
        <time>2022-01-05T09:30:11Z</time>
      </trkpt>
      <trkpt lat="47.72813" lon="6.05345">
        <ele>236.87</ele>
        <time>2022-01-05T09:30:14Z</time>
      </trkpt>
      <trkpt lat="47.72836" lon="6.05361">
        <ele>234.32</ele>
        <time>2022-01-05T09:30:17Z</time>
      </trkpt>
      <trkpt lat="47.72857" lon="6.05377">
        <ele>231.9</ele>
        <time>2022-01-05T09:30:20Z</time>
      </trkpt>
      <trkpt lat="47.72876" lon="6.05392">
        <ele>229.73</ele>
        <time>2022-01-05T09:30:23Z</time>
      </trkpt>
      <trkpt lat="47.72894" lon="6.05406">
        <ele>228.82</ele>
        <time>2022-01-05T09:30:26Z</time>
      </trkpt>
      <trkpt lat="47.72912" lon="6.05419">
        <ele>227.26</ele>
        <time>2022-01-05T09:30:29Z</time>
      </trkpt>
      <trkpt lat="47.7293" lon="6.05431">
        <ele>225.53</ele>
        <time>2022-01-05T09:30:32Z</time>
      </trkpt>
      <trkpt lat="47.72947" lon="6.05443">
        <ele>224.55</ele>
        <time>2022-01-05T09:30:35Z</time>
      </trkpt>
      <trkpt lat="47.72967" lon="6.05462">
        <ele>224.58</ele>
        <time>2022-01-05T09:30:39Z</time>
      </trkpt>
      <trkpt lat="47.72986" lon="6.0548">
        <ele>224.54</ele>
        <time>2022-01-05T09:30:43Z</time>
      </trkpt>
      <trkpt lat="47.73005" lon="6.05498">
        <ele>225.18</ele>
        <time>2022-01-05T09:30:47Z</time>
      </trkpt>
      <trkpt lat="47.73021" lon="6.05512">
        <ele>225.15</ele>
        <time>2022-01-05T09:30:50Z</time>
      </trkpt>
      <trkpt lat="47.7304" lon="6.05525">
        <ele>225.56</ele>
        <time>2022-01-05T09:30:54Z</time>
      </trkpt>
      <trkpt lat="47.7306" lon="6.05536">
        <ele>225.75</ele>
        <time>2022-01-05T09:30:58Z</time>
      </trkpt>
      <trkpt lat="47.73077" lon="6.05546">
        <ele>225.28</ele>
        <time>2022-01-05T09:31:01Z</time>
      </trkpt>
      <trkpt lat="47.73095" lon="6.0556">
        <ele>224.33</ele>
        <time>2022-01-05T09:31:04Z</time>
      </trkpt>
      <trkpt lat="47.73114" lon="6.0557">
        <ele>223.24</ele>
        <time>2022-01-05T09:31:08Z</time>
      </trkpt>
      <trkpt lat="47.73134" lon="6.05577">
        <ele>223.39</ele>
        <time>2022-01-05T09:31:12Z</time>
      </trkpt>
      <trkpt lat="47.73152" lon="6.05588">
        <ele>223.27</ele>
        <time>2022-01-05T09:31:15Z</time>
      </trkpt>
      <trkpt lat="47.73172" lon="6.05603">
        <ele>222.79</ele>
        <time>2022-01-05T09:31:19Z</time>
      </trkpt>
      <trkpt lat="47.73193" lon="6.05619">
        <ele>221.7</ele>
        <time>2022-01-05T09:31:23Z</time>
      </trkpt>
      <trkpt lat="47.73213" lon="6.05636">
        <ele>221.11</ele>
        <time>2022-01-05T09:31:27Z</time>
      </trkpt>
      <trkpt lat="47.73233" lon="6.05654">
        <ele>221</ele>
        <time>2022-01-05T09:31:31Z</time>
      </trkpt>
      <trkpt lat="47.7325" lon="6.05668">
        <ele>220.99</ele>
        <time>2022-01-05T09:31:34Z</time>
      </trkpt>
      <trkpt lat="47.73266" lon="6.05682">
        <ele>220.81</ele>
        <time>2022-01-05T09:31:37Z</time>
      </trkpt>
      <trkpt lat="47.73283" lon="6.05704">
        <ele>220.35</ele>
        <time>2022-01-05T09:31:40Z</time>
      </trkpt>
      <trkpt lat="47.73299" lon="6.0572">
        <ele>219.59</ele>
        <time>2022-01-05T09:31:43Z</time>
      </trkpt>
      <trkpt lat="47.73318" lon="6.05736">
        <ele>219.58</ele>
        <time>2022-01-05T09:31:47Z</time>
      </trkpt>
      <trkpt lat="47.73333" lon="6.0575">
        <ele>219.48</ele>
        <time>2022-01-05T09:31:50Z</time>
      </trkpt>
      <trkpt lat="47.73353" lon="6.05767">
        <ele>221.29</ele>
        <time>2022-01-05T09:31:54Z</time>
      </trkpt>
      <trkpt lat="47.73365" lon="6.05792">
        <ele>222.18</ele>
        <time>2022-01-05T09:31:58Z</time>
      </trkpt>
      <trkpt lat="47.73379" lon="6.05812">
        <ele>222.03</ele>
        <time>2022-01-05T09:32:02Z</time>
      </trkpt>
      <trkpt lat="47.73397" lon="6.05826">
        <ele>222.42</ele>
        <time>2022-01-05T09:32:07Z</time>
      </trkpt>
      <trkpt lat="47.73416" lon="6.05834">
        <ele>223.12</ele>
        <time>2022-01-05T09:32:13Z</time>
      </trkpt>
      <trkpt lat="47.73432" lon="6.05852">
        <ele>224.22</ele>
        <time>2022-01-05T09:32:19Z</time>
      </trkpt>
      <trkpt lat="47.73444" lon="6.05871">
        <ele>225.23</ele>
        <time>2022-01-05T09:32:25Z</time>
      </trkpt>
      <trkpt lat="47.73456" lon="6.05895">
        <ele>225.72</ele>
        <time>2022-01-05T09:32:31Z</time>
      </trkpt>
      <trkpt lat="47.7347" lon="6.05919">
        <ele>226.57</ele>
        <time>2022-01-05T09:32:38Z</time>
      </trkpt>
      <trkpt lat="47.73485" lon="6.0594">
        <ele>227.71</ele>
        <time>2022-01-05T09:32:44Z</time>
      </trkpt>
      <trkpt lat="47.73497" lon="6.05961">
        <ele>230.79</ele>
        <time>2022-01-05T09:32:53Z</time>
      </trkpt>
      <trkpt lat="47.73511" lon="6.05981">
        <ele>234.16</ele>
        <time>2022-01-05T09:33:02Z</time>
      </trkpt>
      <trkpt lat="47.7352" lon="6.06007">
        <ele>235.26</ele>
        <time>2022-01-05T09:33:09Z</time>
      </trkpt>
      <trkpt lat="47.73529" lon="6.06032">
        <ele>236.87</ele>
        <time>2022-01-05T09:33:16Z</time>
      </trkpt>
      <trkpt lat="47.73537" lon="6.06058">
        <ele>240.1</ele>
        <time>2022-01-05T09:33:25Z</time>
      </trkpt>
      <trkpt lat="47.73545" lon="6.06083">
        <ele>242.14</ele>
        <time>2022-01-05T09:33:33Z</time>
      </trkpt>
      <trkpt lat="47.73545" lon="6.0611">
        <ele>243.01</ele>
        <time>2022-01-05T09:33:40Z</time>
      </trkpt>
      <trkpt lat="47.73548" lon="6.0614">
        <ele>242.27</ele>
        <time>2022-01-05T09:33:48Z</time>
      </trkpt>
      <trkpt lat="47.73556" lon="6.06167">
        <ele>243.08</ele>
        <time>2022-01-05T09:33:57Z</time>
      </trkpt>
      <trkpt lat="47.7357" lon="6.06187">
        <ele>243.08</ele>
        <time>2022-01-05T09:34:07Z</time>
      </trkpt>
      <trkpt lat="47.73586" lon="6.06203">
        <ele>244.65</ele>
        <time>2022-01-05T09:34:15Z</time>
      </trkpt>
      <trkpt lat="47.73601" lon="6.06219">
        <ele>245.25</ele>
        <time>2022-01-05T09:34:28Z</time>
      </trkpt>
      <trkpt lat="47.73618" lon="6.06232">
        <ele>246.95</ele>
        <time>2022-01-05T09:34:39Z</time>
      </trkpt>
      <trkpt lat="47.73628" lon="6.06256">
        <ele>247.71</ele>
        <time>2022-01-05T09:34:48Z</time>
      </trkpt>
      <trkpt lat="47.73631" lon="6.06283">
        <ele>246.93</ele>
        <time>2022-01-05T09:34:56Z</time>
      </trkpt>
      <trkpt lat="47.73617" lon="6.06301">
        <ele>248.31</ele>
        <time>2022-01-05T09:35:10Z</time>
      </trkpt>
      <trkpt lat="47.73601" lon="6.0629">
        <ele>248.11</ele>
        <time>2022-01-05T09:35:16Z</time>
      </trkpt>
      <trkpt lat="47.73588" lon="6.06311">
        <ele>251.27</ele>
        <time>2022-01-05T09:35:27Z</time>
      </trkpt>
      <trkpt lat="47.7357" lon="6.06322">
        <ele>251.63</ele>
        <time>2022-01-05T09:35:32Z</time>
      </trkpt>
      <trkpt lat="47.73553" lon="6.06336">
        <ele>253.21</ele>
        <time>2022-01-05T09:35:37Z</time>
      </trkpt>
      <trkpt lat="47.73535" lon="6.06345">
        <ele>254.23</ele>
        <time>2022-01-05T09:35:43Z</time>
      </trkpt>
      <trkpt lat="47.73523" lon="6.06365">
        <ele>253.03</ele>
        <time>2022-01-05T09:35:50Z</time>
      </trkpt>
      <trkpt lat="47.73504" lon="6.06372">
        <ele>252.79</ele>
        <time>2022-01-05T09:35:57Z</time>
      </trkpt>
      <trkpt lat="47.73485" lon="6.06367">
        <ele>253.02</ele>
        <time>2022-01-05T09:36:01Z</time>
      </trkpt>
      <trkpt lat="47.73463" lon="6.06361">
        <ele>253.71</ele>
        <time>2022-01-05T09:36:05Z</time>
      </trkpt>
      <trkpt lat="47.73444" lon="6.06353">
        <ele>254.65</ele>
        <time>2022-01-05T09:36:09Z</time>
      </trkpt>
      <trkpt lat="47.73424" lon="6.06346">
        <ele>254.95</ele>
        <time>2022-01-05T09:36:13Z</time>
      </trkpt>
      <trkpt lat="47.73404" lon="6.06341">
        <ele>255.54</ele>
        <time>2022-01-05T09:36:17Z</time>
      </trkpt>
      <trkpt lat="47.73384" lon="6.06338">
        <ele>256.48</ele>
        <time>2022-01-05T09:36:21Z</time>
      </trkpt>
      <trkpt lat="47.73363" lon="6.06328">
        <ele>256.69</ele>
        <time>2022-01-05T09:36:28Z</time>
      </trkpt>
      <trkpt lat="47.73344" lon="6.06319">
        <ele>257.63</ele>
        <time>2022-01-05T09:36:33Z</time>
      </trkpt>
      <trkpt lat="47.73322" lon="6.06311">
        <ele>259.06</ele>
        <time>2022-01-05T09:36:38Z</time>
      </trkpt>
      <trkpt lat="47.73307" lon="6.06295">
        <ele>260.47</ele>
        <time>2022-01-05T09:36:43Z</time>
      </trkpt>
      <trkpt lat="47.73289" lon="6.06282">
        <ele>260.12</ele>
        <time>2022-01-05T09:36:49Z</time>
      </trkpt>
      <trkpt lat="47.73271" lon="6.0627">
        <ele>259.72</ele>
        <time>2022-01-05T09:36:53Z</time>
      </trkpt>
      <trkpt lat="47.7325" lon="6.0626">
        <ele>258.65</ele>
        <time>2022-01-05T09:36:57Z</time>
      </trkpt>
      <trkpt lat="47.7323" lon="6.06261">
        <ele>257.6</ele>
        <time>2022-01-05T09:37:02Z</time>
      </trkpt>
      <trkpt lat="47.73211" lon="6.06253">
        <ele>258.39</ele>
        <time>2022-01-05T09:37:07Z</time>
      </trkpt>
      <trkpt lat="47.73191" lon="6.06243">
        <ele>258.27</ele>
        <time>2022-01-05T09:37:11Z</time>
      </trkpt>
      <trkpt lat="47.7318" lon="6.06219">
        <ele>258.98</ele>
        <time>2022-01-05T09:37:15Z</time>
      </trkpt>
      <trkpt lat="47.73161" lon="6.06196">
        <ele>261.88</ele>
        <time>2022-01-05T09:37:20Z</time>
      </trkpt>
      <trkpt lat="47.73144" lon="6.06182">
        <ele>262.4</ele>
        <time>2022-01-05T09:37:27Z</time>
      </trkpt>
      <trkpt lat="47.73124" lon="6.06169">
        <ele>264.24</ele>
        <time>2022-01-05T09:37:32Z</time>
      </trkpt>
      <trkpt lat="47.73103" lon="6.06159">
        <ele>264.43</ele>
        <time>2022-01-05T09:37:36Z</time>
      </trkpt>
      <trkpt lat="47.73082" lon="6.06152">
        <ele>264.39</ele>
        <time>2022-01-05T09:37:40Z</time>
      </trkpt>
      <trkpt lat="47.73063" lon="6.06149">
        <ele>263.75</ele>
        <time>2022-01-05T09:37:44Z</time>
      </trkpt>
      <trkpt lat="47.73038" lon="6.06152">
        <ele>261.85</ele>
        <time>2022-01-05T09:37:48Z</time>
      </trkpt>
      <trkpt lat="47.73019" lon="6.06154">
        <ele>259.29</ele>
        <time>2022-01-05T09:37:51Z</time>
      </trkpt>
      <trkpt lat="47.73" lon="6.06157">
        <ele>257.86</ele>
        <time>2022-01-05T09:37:53Z</time>
      </trkpt>
      <trkpt lat="47.72975" lon="6.06163">
        <ele>255.28</ele>
        <time>2022-01-05T09:37:56Z</time>
      </trkpt>
      <trkpt lat="47.72955" lon="6.06166">
        <ele>252.17</ele>
        <time>2022-01-05T09:37:59Z</time>
      </trkpt>
      <trkpt lat="47.72932" lon="6.06179">
        <ele>248.81</ele>
        <time>2022-01-05T09:38:03Z</time>
      </trkpt>
      <trkpt lat="47.72917" lon="6.06196">
        <ele>247.03</ele>
        <time>2022-01-05T09:38:06Z</time>
      </trkpt>
      <trkpt lat="47.72904" lon="6.06215">
        <ele>245.45</ele>
        <time>2022-01-05T09:38:09Z</time>
      </trkpt>
      <trkpt lat="47.72891" lon="6.0624">
        <ele>244.44</ele>
        <time>2022-01-05T09:38:13Z</time>
      </trkpt>
      <trkpt lat="47.72878" lon="6.06267">
        <ele>243.69</ele>
        <time>2022-01-05T09:38:17Z</time>
      </trkpt>
      <trkpt lat="47.72866" lon="6.06295">
        <ele>243.25</ele>
        <time>2022-01-05T09:38:21Z</time>
      </trkpt>
      <trkpt lat="47.72853" lon="6.06319">
        <ele>242.98</ele>
        <time>2022-01-05T09:38:24Z</time>
      </trkpt>
      <trkpt lat="47.72838" lon="6.06339">
        <ele>243.69</ele>
        <time>2022-01-05T09:38:27Z</time>
      </trkpt>
      <trkpt lat="47.72819" lon="6.06356">
        <ele>244.16</ele>
        <time>2022-01-05T09:38:30Z</time>
      </trkpt>
      <trkpt lat="47.72807" lon="6.06377">
        <ele>243.74</ele>
        <time>2022-01-05T09:38:35Z</time>
      </trkpt>
      <trkpt lat="47.72759" lon="6.06395">
        <ele>246.55</ele>
        <time>2022-01-05T09:39:42Z</time>
      </trkpt>
      <trkpt lat="47.72714" lon="6.06389">
        <ele>250.2</ele>
        <time>2022-01-05T09:40:09Z</time>
      </trkpt>
      <trkpt lat="47.72674" lon="6.06373">
        <ele>251.4</ele>
        <time>2022-01-05T09:40:36Z</time>
      </trkpt>
      <trkpt lat="47.72657" lon="6.06366">
        <ele>250.04</ele>
        <time>2022-01-05T09:40:53Z</time>
      </trkpt>
      <trkpt lat="47.72629" lon="6.06331">
        <ele>249.15</ele>
        <time>2022-01-05T09:41:32Z</time>
      </trkpt>
      <trkpt lat="47.72613" lon="6.06316">
        <ele>250.3</ele>
        <time>2022-01-05T09:41:48Z</time>
      </trkpt>
      <trkpt lat="47.726" lon="6.06295">
        <ele>250.15</ele>
        <time>2022-01-05T09:42:02Z</time>
      </trkpt>
      <trkpt lat="47.72582" lon="6.06287">
        <ele>250.53</ele>
        <time>2022-01-05T09:42:10Z</time>
      </trkpt>
      <trkpt lat="47.72565" lon="6.06273">
        <ele>250.06</ele>
        <time>2022-01-05T09:42:19Z</time>
      </trkpt>
      <trkpt lat="47.72546" lon="6.06258">
        <ele>248.89</ele>
        <time>2022-01-05T09:42:26Z</time>
      </trkpt>
      <trkpt lat="47.72529" lon="6.06247">
        <ele>248.66</ele>
        <time>2022-01-05T09:42:31Z</time>
      </trkpt>
      <trkpt lat="47.72512" lon="6.06232">
        <ele>249.08</ele>
        <time>2022-01-05T09:42:37Z</time>
      </trkpt>
      <trkpt lat="47.72494" lon="6.06223">
        <ele>249.55</ele>
        <time>2022-01-05T09:42:42Z</time>
      </trkpt>
      <trkpt lat="47.72475" lon="6.06213">
        <ele>250.59</ele>
        <time>2022-01-05T09:42:47Z</time>
      </trkpt>
      <trkpt lat="47.72458" lon="6.06201">
        <ele>250.91</ele>
        <time>2022-01-05T09:42:52Z</time>
      </trkpt>
      <trkpt lat="47.72441" lon="6.0619">
        <ele>250.68</ele>
        <time>2022-01-05T09:42:58Z</time>
      </trkpt>
      <trkpt lat="47.72423" lon="6.06177">
        <ele>250.49</ele>
        <time>2022-01-05T09:43:04Z</time>
      </trkpt>
      <trkpt lat="47.72405" lon="6.06168">
        <ele>251.8</ele>
        <time>2022-01-05T09:43:09Z</time>
      </trkpt>
      <trkpt lat="47.72388" lon="6.06158">
        <ele>251.87</ele>
        <time>2022-01-05T09:43:14Z</time>
      </trkpt>
      <trkpt lat="47.72369" lon="6.06157">
        <ele>250.89</ele>
        <time>2022-01-05T09:43:22Z</time>
      </trkpt>
      <trkpt lat="47.72349" lon="6.06156">
        <ele>249.96</ele>
        <time>2022-01-05T09:43:28Z</time>
      </trkpt>
      <trkpt lat="47.7233" lon="6.06151">
        <ele>250.08</ele>
        <time>2022-01-05T09:43:33Z</time>
      </trkpt>
      <trkpt lat="47.72312" lon="6.06147">
        <ele>249.66</ele>
        <time>2022-01-05T09:43:38Z</time>
      </trkpt>
      <trkpt lat="47.72291" lon="6.06147">
        <ele>249.65</ele>
        <time>2022-01-05T09:43:43Z</time>
      </trkpt>
      <trkpt lat="47.72275" lon="6.06161">
        <ele>246.55</ele>
        <time>2022-01-05T09:43:51Z</time>
      </trkpt>
      <trkpt lat="47.72256" lon="6.0616">
        <ele>247.5</ele>
        <time>2022-01-05T09:43:57Z</time>
      </trkpt>
      <trkpt lat="47.72238" lon="6.06155">
        <ele>248.44</ele>
        <time>2022-01-05T09:44:01Z</time>
      </trkpt>
      <trkpt lat="47.7222" lon="6.06147">
        <ele>249.74</ele>
        <time>2022-01-05T09:44:05Z</time>
      </trkpt>
      <trkpt lat="47.72202" lon="6.06135">
        <ele>249.98</ele>
        <time>2022-01-05T09:44:10Z</time>
      </trkpt>
      <trkpt lat="47.72182" lon="6.06124">
        <ele>247.98</ele>
        <time>2022-01-05T09:44:14Z</time>
      </trkpt>
      <trkpt lat="47.72163" lon="6.06114">
        <ele>246.01</ele>
        <time>2022-01-05T09:44:19Z</time>
      </trkpt>
      <trkpt lat="47.72151" lon="6.0609">
        <ele>245.72</ele>
        <time>2022-01-05T09:44:25Z</time>
      </trkpt>
      <trkpt lat="47.72141" lon="6.06066">
        <ele>245.72</ele>
        <time>2022-01-05T09:44:33Z</time>
      </trkpt>
      <trkpt lat="47.72125" lon="6.0605">
        <ele>246.6</ele>
        <time>2022-01-05T09:44:46Z</time>
      </trkpt>
      <trkpt lat="47.7211" lon="6.0603">
        <ele>245.49</ele>
        <time>2022-01-05T09:44:56Z</time>
      </trkpt>
      <trkpt lat="47.72075" lon="6.05999">
        <ele>245.85</ele>
        <time>2022-01-05T09:45:19Z</time>
      </trkpt>
      <trkpt lat="47.72057" lon="6.05986">
        <ele>247.68</ele>
        <time>2022-01-05T09:45:29Z</time>
      </trkpt>
      <trkpt lat="47.72023" lon="6.05954">
        <ele>251.05</ele>
        <time>2022-01-05T09:45:56Z</time>
      </trkpt>
      <trkpt lat="47.72" lon="6.05928">
        <ele>262.2</ele>
        <time>2022-01-05T09:46:29Z</time>
      </trkpt>
      <trkpt lat="47.7197" lon="6.05921">
        <ele>271.5</ele>
        <time>2022-01-05T09:46:54Z</time>
      </trkpt>
      <trkpt lat="47.71952" lon="6.05913">
        <ele>271.09</ele>
        <time>2022-01-05T09:47:02Z</time>
      </trkpt>
      <trkpt lat="47.71938" lon="6.05894">
        <ele>271.55</ele>
        <time>2022-01-05T09:47:11Z</time>
      </trkpt>
      <trkpt lat="47.71918" lon="6.05888">
        <ele>271.61</ele>
        <time>2022-01-05T09:47:16Z</time>
      </trkpt>
      <trkpt lat="47.719" lon="6.05878">
        <ele>272.55</ele>
        <time>2022-01-05T09:47:23Z</time>
      </trkpt>
      <trkpt lat="47.71891" lon="6.0585">
        <ele>275.03</ele>
        <time>2022-01-05T09:47:31Z</time>
      </trkpt>
      <trkpt lat="47.71879" lon="6.05829">
        <ele>276.98</ele>
        <time>2022-01-05T09:47:36Z</time>
      </trkpt>
      <trkpt lat="47.71864" lon="6.05812">
        <ele>278.6</ele>
        <time>2022-01-05T09:47:42Z</time>
      </trkpt>
      <trkpt lat="47.7185" lon="6.05794">
        <ele>279.53</ele>
        <time>2022-01-05T09:47:49Z</time>
      </trkpt>
      <trkpt lat="47.71836" lon="6.05777">
        <ele>285.76</ele>
        <time>2022-01-05T09:47:59Z</time>
      </trkpt>
      <trkpt lat="47.71811" lon="6.05772">
        <ele>287.64</ele>
        <time>2022-01-05T09:48:05Z</time>
      </trkpt>
      <trkpt lat="47.7179" lon="6.0577">
        <ele>287.49</ele>
        <time>2022-01-05T09:48:09Z</time>
      </trkpt>
      <trkpt lat="47.7177" lon="6.05763">
        <ele>287.39</ele>
        <time>2022-01-05T09:48:14Z</time>
      </trkpt>
      <trkpt lat="47.71752" lon="6.05757">
        <ele>288.15</ele>
        <time>2022-01-05T09:48:19Z</time>
      </trkpt>
      <trkpt lat="47.71734" lon="6.05748">
        <ele>287.23</ele>
        <time>2022-01-05T09:48:27Z</time>
      </trkpt>
      <trkpt lat="47.7171" lon="6.05743">
        <ele>286.8</ele>
        <time>2022-01-05T09:48:38Z</time>
      </trkpt>
      <trkpt lat="47.71686" lon="6.0574">
        <ele>286.48</ele>
        <time>2022-01-05T09:48:43Z</time>
      </trkpt>
      <trkpt lat="47.71667" lon="6.05732">
        <ele>286.96</ele>
        <time>2022-01-05T09:48:47Z</time>
      </trkpt>
      <trkpt lat="47.71649" lon="6.05721">
        <ele>287.57</ele>
        <time>2022-01-05T09:48:52Z</time>
      </trkpt>
      <trkpt lat="47.7163" lon="6.05727">
        <ele>286.5</ele>
        <time>2022-01-05T09:48:56Z</time>
      </trkpt>
      <trkpt lat="47.71612" lon="6.05731">
        <ele>284.84</ele>
        <time>2022-01-05T09:48:58Z</time>
      </trkpt>
      <trkpt lat="47.71598" lon="6.05756">
        <ele>278.96</ele>
        <time>2022-01-05T09:49:04Z</time>
      </trkpt>
      <trkpt lat="47.71593" lon="6.05781">
        <ele>274.15</ele>
        <time>2022-01-05T09:49:09Z</time>
      </trkpt>
      <trkpt lat="47.71588" lon="6.05811">
        <ele>270.74</ele>
        <time>2022-01-05T09:49:17Z</time>
      </trkpt>
      <trkpt lat="47.7159" lon="6.0584">
        <ele>270.88</ele>
        <time>2022-01-05T09:49:24Z</time>
      </trkpt>
      <trkpt lat="47.71592" lon="6.0587">
        <ele>271.51</ele>
        <time>2022-01-05T09:49:32Z</time>
      </trkpt>
      <trkpt lat="47.71595" lon="6.05897">
        <ele>271.33</ele>
        <time>2022-01-05T09:49:38Z</time>
      </trkpt>
      <trkpt lat="47.71596" lon="6.05927">
        <ele>271.2</ele>
        <time>2022-01-05T09:49:45Z</time>
      </trkpt>
      <trkpt lat="47.71597" lon="6.05957">
        <ele>271.53</ele>
        <time>2022-01-05T09:49:52Z</time>
      </trkpt>
      <trkpt lat="47.71598" lon="6.05985">
        <ele>270.64</ele>
        <time>2022-01-05T09:49:57Z</time>
      </trkpt>
      <trkpt lat="47.71597" lon="6.06015">
        <ele>269.93</ele>
        <time>2022-01-05T09:50:03Z</time>
      </trkpt>
      <trkpt lat="47.71592" lon="6.06044">
        <ele>270.75</ele>
        <time>2022-01-05T09:50:13Z</time>
      </trkpt>
      <trkpt lat="47.71581" lon="6.06068">
        <ele>271.18</ele>
        <time>2022-01-05T09:50:20Z</time>
      </trkpt>
      <trkpt lat="47.71574" lon="6.06097">
        <ele>272.03</ele>
        <time>2022-01-05T09:50:27Z</time>
      </trkpt>
      <trkpt lat="47.71564" lon="6.06122">
        <ele>272.82</ele>
        <time>2022-01-05T09:50:35Z</time>
      </trkpt>
      <trkpt lat="47.71556" lon="6.06146">
        <ele>274.65</ele>
        <time>2022-01-05T09:50:45Z</time>
      </trkpt>
      <trkpt lat="47.71551" lon="6.06174">
        <ele>275.37</ele>
        <time>2022-01-05T09:50:54Z</time>
      </trkpt>
      <trkpt lat="47.71546" lon="6.06203">
        <ele>279.01</ele>
        <time>2022-01-05T09:51:03Z</time>
      </trkpt>
      <trkpt lat="47.71537" lon="6.06232">
        <ele>281.58</ele>
        <time>2022-01-05T09:51:11Z</time>
      </trkpt>
      <trkpt lat="47.7153" lon="6.0626">
        <ele>280.18</ele>
        <time>2022-01-05T09:51:18Z</time>
      </trkpt>
      <trkpt lat="47.71524" lon="6.06288">
        <ele>280.56</ele>
        <time>2022-01-05T09:51:26Z</time>
      </trkpt>
      <trkpt lat="47.71519" lon="6.06315">
        <ele>280.75</ele>
        <time>2022-01-05T09:51:34Z</time>
      </trkpt>
      <trkpt lat="47.71519" lon="6.06343">
        <ele>280.98</ele>
        <time>2022-01-05T09:51:41Z</time>
      </trkpt>
      <trkpt lat="47.71514" lon="6.06372">
        <ele>280.95</ele>
        <time>2022-01-05T09:51:49Z</time>
      </trkpt>
      <trkpt lat="47.71509" lon="6.06403">
        <ele>280.83</ele>
        <time>2022-01-05T09:51:55Z</time>
      </trkpt>
      <trkpt lat="47.71497" lon="6.06428">
        <ele>283.11</ele>
        <time>2022-01-05T09:52:05Z</time>
      </trkpt>
      <trkpt lat="47.71487" lon="6.0645">
        <ele>283.21</ele>
        <time>2022-01-05T09:52:12Z</time>
      </trkpt>
      <trkpt lat="47.71482" lon="6.06476">
        <ele>284.13</ele>
        <time>2022-01-05T09:52:20Z</time>
      </trkpt>
      <trkpt lat="47.71472" lon="6.06504">
        <ele>286.36</ele>
        <time>2022-01-05T09:52:28Z</time>
      </trkpt>
      <trkpt lat="47.71469" lon="6.06535">
        <ele>288.65</ele>
        <time>2022-01-05T09:52:34Z</time>
      </trkpt>
      <trkpt lat="47.71467" lon="6.06562">
        <ele>289.92</ele>
        <time>2022-01-05T09:52:40Z</time>
      </trkpt>
      <trkpt lat="47.71459" lon="6.06586">
        <ele>290.66</ele>
        <time>2022-01-05T09:52:46Z</time>
      </trkpt>
      <trkpt lat="47.71451" lon="6.06612">
        <ele>292.63</ele>
        <time>2022-01-05T09:52:53Z</time>
      </trkpt>
      <trkpt lat="47.71442" lon="6.06642">
        <ele>294.89</ele>
        <time>2022-01-05T09:53:00Z</time>
      </trkpt>
      <trkpt lat="47.71437" lon="6.06669">
        <ele>296.31</ele>
        <time>2022-01-05T09:53:05Z</time>
      </trkpt>
      <trkpt lat="47.71433" lon="6.06701">
        <ele>299.04</ele>
        <time>2022-01-05T09:53:10Z</time>
      </trkpt>
      <trkpt lat="47.71431" lon="6.06729">
        <ele>300.71</ele>
        <time>2022-01-05T09:53:14Z</time>
      </trkpt>
      <trkpt lat="47.71431" lon="6.06765">
        <ele>301.32</ele>
        <time>2022-01-05T09:53:18Z</time>
      </trkpt>
      <trkpt lat="47.71429" lon="6.06797">
        <ele>301.23</ele>
        <time>2022-01-05T09:53:21Z</time>
      </trkpt>
      <trkpt lat="47.71426" lon="6.06828">
        <ele>301.59</ele>
        <time>2022-01-05T09:53:24Z</time>
      </trkpt>
      <trkpt lat="47.71424" lon="6.06858">
        <ele>301.61</ele>
        <time>2022-01-05T09:53:27Z</time>
      </trkpt>
      <trkpt lat="47.71421" lon="6.06891">
        <ele>301</ele>
        <time>2022-01-05T09:53:30Z</time>
      </trkpt>
      <trkpt lat="47.71422" lon="6.06918">
        <ele>300.44</ele>
        <time>2022-01-05T09:53:32Z</time>
      </trkpt>
      <trkpt lat="47.71421" lon="6.06951">
        <ele>298.56</ele>
        <time>2022-01-05T09:53:35Z</time>
      </trkpt>
      <trkpt lat="47.71418" lon="6.06981">
        <ele>296.5</ele>
        <time>2022-01-05T09:53:38Z</time>
      </trkpt>
      <trkpt lat="47.71415" lon="6.07011">
        <ele>294.53</ele>
        <time>2022-01-05T09:53:41Z</time>
      </trkpt>
      <trkpt lat="47.71414" lon="6.07041">
        <ele>292.65</ele>
        <time>2022-01-05T09:53:44Z</time>
      </trkpt>
      <trkpt lat="47.71417" lon="6.07076">
        <ele>291.19</ele>
        <time>2022-01-05T09:53:48Z</time>
      </trkpt>
      <trkpt lat="47.71416" lon="6.07104">
        <ele>289.38</ele>
        <time>2022-01-05T09:53:52Z</time>
      </trkpt>
      <trkpt lat="47.71421" lon="6.07136">
        <ele>287.88</ele>
        <time>2022-01-05T09:53:55Z</time>
      </trkpt>
      <trkpt lat="47.71423" lon="6.07165">
        <ele>285.21</ele>
        <time>2022-01-05T09:53:59Z</time>
      </trkpt>
      <trkpt lat="47.7142" lon="6.07193">
        <ele>283.01</ele>
        <time>2022-01-05T09:54:05Z</time>
      </trkpt>
      <trkpt lat="47.71425" lon="6.07223">
        <ele>281.82</ele>
        <time>2022-01-05T09:54:13Z</time>
      </trkpt>
      <trkpt lat="47.71431" lon="6.07252">
        <ele>281.63</ele>
        <time>2022-01-05T09:54:19Z</time>
      </trkpt>
      <trkpt lat="47.71439" lon="6.0728">
        <ele>281.91</ele>
        <time>2022-01-05T09:54:25Z</time>
      </trkpt>
      <trkpt lat="47.71442" lon="6.07309">
        <ele>283</ele>
        <time>2022-01-05T09:54:32Z</time>
      </trkpt>
      <trkpt lat="47.71436" lon="6.07335">
        <ele>282.3</ele>
        <time>2022-01-05T09:54:39Z</time>
      </trkpt>
      <trkpt lat="47.71422" lon="6.07354">
        <ele>281.44</ele>
        <time>2022-01-05T09:54:46Z</time>
      </trkpt>
      <trkpt lat="47.71425" lon="6.07388">
        <ele>281.18</ele>
        <time>2022-01-05T09:54:54Z</time>
      </trkpt>
      <trkpt lat="47.71435" lon="6.07415">
        <ele>280.24</ele>
        <time>2022-01-05T09:55:00Z</time>
      </trkpt>
      <trkpt lat="47.7144" lon="6.07442">
        <ele>280.51</ele>
        <time>2022-01-05T09:55:10Z</time>
      </trkpt>
      <trkpt lat="47.71445" lon="6.07471">
        <ele>282.71</ele>
        <time>2022-01-05T09:55:18Z</time>
      </trkpt>
      <trkpt lat="47.71446" lon="6.07502">
        <ele>283.15</ele>
        <time>2022-01-05T09:55:23Z</time>
      </trkpt>
      <trkpt lat="47.71452" lon="6.0753">
        <ele>282.5</ele>
        <time>2022-01-05T09:55:29Z</time>
      </trkpt>
      <trkpt lat="47.71458" lon="6.07561">
        <ele>282.75</ele>
        <time>2022-01-05T09:55:35Z</time>
      </trkpt>
      <trkpt lat="47.71459" lon="6.0759">
        <ele>285.68</ele>
        <time>2022-01-05T09:55:43Z</time>
      </trkpt>
      <trkpt lat="47.71453" lon="6.07617">
        <ele>285.82</ele>
        <time>2022-01-05T09:55:49Z</time>
      </trkpt>
      <trkpt lat="47.71437" lon="6.07632">
        <ele>286.08</ele>
        <time>2022-01-05T09:55:55Z</time>
      </trkpt>
      <trkpt lat="47.71421" lon="6.07649">
        <ele>286.86</ele>
        <time>2022-01-05T09:56:02Z</time>
      </trkpt>
      <trkpt lat="47.71404" lon="6.07662">
        <ele>287.42</ele>
        <time>2022-01-05T09:56:08Z</time>
      </trkpt>
      <trkpt lat="47.71386" lon="6.07672">
        <ele>288.35</ele>
        <time>2022-01-05T09:56:14Z</time>
      </trkpt>
      <trkpt lat="47.71368" lon="6.07674">
        <ele>289.21</ele>
        <time>2022-01-05T09:56:20Z</time>
      </trkpt>
      <trkpt lat="47.71349" lon="6.07674">
        <ele>289.44</ele>
        <time>2022-01-05T09:56:26Z</time>
      </trkpt>
      <trkpt lat="47.71328" lon="6.07673">
        <ele>292.7</ele>
        <time>2022-01-05T09:56:34Z</time>
      </trkpt>
      <trkpt lat="47.71308" lon="6.07673">
        <ele>295.34</ele>
        <time>2022-01-05T09:56:41Z</time>
      </trkpt>
      <trkpt lat="47.71288" lon="6.07676">
        <ele>297.87</ele>
        <time>2022-01-05T09:56:47Z</time>
      </trkpt>
      <trkpt lat="47.7127" lon="6.07679">
        <ele>298.21</ele>
        <time>2022-01-05T09:56:51Z</time>
      </trkpt>
      <trkpt lat="47.71252" lon="6.07686">
        <ele>299.54</ele>
        <time>2022-01-05T09:56:57Z</time>
      </trkpt>
      <trkpt lat="47.71235" lon="6.07701">
        <ele>299.5</ele>
        <time>2022-01-05T09:57:07Z</time>
      </trkpt>
      <trkpt lat="47.71218" lon="6.07709">
        <ele>297.83</ele>
        <time>2022-01-05T09:57:13Z</time>
      </trkpt>
      <trkpt lat="47.712" lon="6.0772">
        <ele>300.61</ele>
        <time>2022-01-05T09:57:18Z</time>
      </trkpt>
      <trkpt lat="47.71186" lon="6.07737">
        <ele>305.57</ele>
        <time>2022-01-05T09:57:32Z</time>
      </trkpt>
      <trkpt lat="47.71171" lon="6.07755">
        <ele>302.53</ele>
        <time>2022-01-05T09:57:39Z</time>
      </trkpt>
      <trkpt lat="47.7116" lon="6.07779">
        <ele>301.02</ele>
        <time>2022-01-05T09:57:47Z</time>
      </trkpt>
      <trkpt lat="47.71149" lon="6.07802">
        <ele>301.1</ele>
        <time>2022-01-05T09:57:55Z</time>
      </trkpt>
      <trkpt lat="47.71136" lon="6.07822">
        <ele>300.98</ele>
        <time>2022-01-05T09:58:01Z</time>
      </trkpt>
      <trkpt lat="47.71123" lon="6.07844">
        <ele>300.87</ele>
        <time>2022-01-05T09:58:09Z</time>
      </trkpt>
      <trkpt lat="47.71113" lon="6.07867">
        <ele>300.25</ele>
        <time>2022-01-05T09:58:17Z</time>
      </trkpt>
      <trkpt lat="47.71109" lon="6.07897">
        <ele>301.19</ele>
        <time>2022-01-05T09:58:26Z</time>
      </trkpt>
      <trkpt lat="47.71104" lon="6.07925">
        <ele>301.94</ele>
        <time>2022-01-05T09:58:34Z</time>
      </trkpt>
      <trkpt lat="47.71097" lon="6.07952">
        <ele>302.07</ele>
        <time>2022-01-05T09:58:42Z</time>
      </trkpt>
      <trkpt lat="47.71088" lon="6.07977">
        <ele>303.4</ele>
        <time>2022-01-05T09:58:50Z</time>
      </trkpt>
      <trkpt lat="47.71079" lon="6.08001">
        <ele>304.4</ele>
        <time>2022-01-05T09:58:57Z</time>
      </trkpt>
      <trkpt lat="47.71071" lon="6.08026">
        <ele>304.95</ele>
        <time>2022-01-05T09:59:05Z</time>
      </trkpt>
      <trkpt lat="47.71061" lon="6.0805">
        <ele>305.02</ele>
        <time>2022-01-05T09:59:14Z</time>
      </trkpt>
      <trkpt lat="47.71053" lon="6.08076">
        <ele>304.96</ele>
        <time>2022-01-05T09:59:22Z</time>
      </trkpt>
      <trkpt lat="47.71042" lon="6.08098">
        <ele>305.66</ele>
        <time>2022-01-05T09:59:30Z</time>
      </trkpt>
      <trkpt lat="47.71032" lon="6.08121">
        <ele>304.78</ele>
        <time>2022-01-05T09:59:38Z</time>
      </trkpt>
      <trkpt lat="47.71022" lon="6.08149">
        <ele>303.97</ele>
        <time>2022-01-05T09:59:46Z</time>
      </trkpt>
      <trkpt lat="47.71013" lon="6.08176">
        <ele>304.59</ele>
        <time>2022-01-05T09:59:53Z</time>
      </trkpt>
      <trkpt lat="47.71004" lon="6.08199">
        <ele>303.97</ele>
        <time>2022-01-05T10:00:00Z</time>
      </trkpt>
      <trkpt lat="47.70993" lon="6.08224">
        <ele>304.21</ele>
        <time>2022-01-05T10:00:08Z</time>
      </trkpt>
      <trkpt lat="47.70985" lon="6.08251">
        <ele>306.07</ele>
        <time>2022-01-05T10:00:16Z</time>
      </trkpt>
      <trkpt lat="47.70978" lon="6.08275">
        <ele>308.88</ele>
        <time>2022-01-05T10:00:24Z</time>
      </trkpt>
      <trkpt lat="47.70976" lon="6.08303">
        <ele>310.22</ele>
        <time>2022-01-05T10:00:31Z</time>
      </trkpt>
      <trkpt lat="47.70971" lon="6.08329">
        <ele>311.71</ele>
        <time>2022-01-05T10:00:38Z</time>
      </trkpt>
      <trkpt lat="47.7096" lon="6.08354">
        <ele>313.44</ele>
        <time>2022-01-05T10:00:45Z</time>
      </trkpt>
      <trkpt lat="47.70947" lon="6.08376">
        <ele>313.84</ele>
        <time>2022-01-05T10:00:51Z</time>
      </trkpt>
      <trkpt lat="47.70937" lon="6.08399">
        <ele>314.67</ele>
        <time>2022-01-05T10:00:56Z</time>
      </trkpt>
      <trkpt lat="47.70933" lon="6.0843">
        <ele>315.78</ele>
        <time>2022-01-05T10:01:03Z</time>
      </trkpt>
      <trkpt lat="47.70938" lon="6.08461">
        <ele>317.61</ele>
        <time>2022-01-05T10:01:09Z</time>
      </trkpt>
      <trkpt lat="47.70947" lon="6.08485">
        <ele>318.3</ele>
        <time>2022-01-05T10:01:13Z</time>
      </trkpt>
      <trkpt lat="47.70956" lon="6.08515">
        <ele>321.9</ele>
        <time>2022-01-05T10:01:17Z</time>
      </trkpt>
      <trkpt lat="47.70964" lon="6.08545">
        <ele>324.36</ele>
        <time>2022-01-05T10:01:20Z</time>
      </trkpt>
      <trkpt lat="47.70969" lon="6.08573">
        <ele>326.06</ele>
        <time>2022-01-05T10:01:23Z</time>
      </trkpt>
      <trkpt lat="47.70977" lon="6.08601">
        <ele>327.86</ele>
        <time>2022-01-05T10:01:27Z</time>
      </trkpt>
      <trkpt lat="47.70989" lon="6.08631">
        <ele>328.81</ele>
        <time>2022-01-05T10:01:31Z</time>
      </trkpt>
      <trkpt lat="47.70997" lon="6.08661">
        <ele>330.21</ele>
        <time>2022-01-05T10:01:36Z</time>
      </trkpt>
      <trkpt lat="47.71001" lon="6.08691">
        <ele>331.05</ele>
        <time>2022-01-05T10:01:41Z</time>
      </trkpt>
      <trkpt lat="47.71005" lon="6.08718">
        <ele>331.49</ele>
        <time>2022-01-05T10:01:44Z</time>
      </trkpt>
      <trkpt lat="47.71012" lon="6.0875">
        <ele>332.28</ele>
        <time>2022-01-05T10:01:48Z</time>
      </trkpt>
      <trkpt lat="47.71012" lon="6.08778">
        <ele>333.72</ele>
        <time>2022-01-05T10:01:52Z</time>
      </trkpt>
      <trkpt lat="47.71011" lon="6.08806">
        <ele>335.47</ele>
        <time>2022-01-05T10:01:56Z</time>
      </trkpt>
      <trkpt lat="47.71011" lon="6.08835">
        <ele>336.34</ele>
        <time>2022-01-05T10:02:01Z</time>
      </trkpt>
      <trkpt lat="47.71005" lon="6.08866">
        <ele>336.87</ele>
        <time>2022-01-05T10:02:08Z</time>
      </trkpt>
      <trkpt lat="47.71007" lon="6.08895">
        <ele>335.68</ele>
        <time>2022-01-05T10:02:11Z</time>
      </trkpt>
      <trkpt lat="47.71014" lon="6.08924">
        <ele>334.83</ele>
        <time>2022-01-05T10:02:14Z</time>
      </trkpt>
      <trkpt lat="47.71014" lon="6.08966">
        <ele>333.56</ele>
        <time>2022-01-05T10:02:22Z</time>
      </trkpt>
      <trkpt lat="47.71008" lon="6.08992">
        <ele>331.93</ele>
        <time>2022-01-05T10:02:26Z</time>
      </trkpt>
      <trkpt lat="47.71011" lon="6.09024">
        <ele>331.1</ele>
        <time>2022-01-05T10:02:31Z</time>
      </trkpt>
      <trkpt lat="47.7101" lon="6.09053">
        <ele>329.31</ele>
        <time>2022-01-05T10:02:36Z</time>
      </trkpt>
      <trkpt lat="47.71002" lon="6.0908">
        <ele>326.86</ele>
        <time>2022-01-05T10:02:43Z</time>
      </trkpt>
      <trkpt lat="47.7101" lon="6.09116">
        <ele>323.31</ele>
        <time>2022-01-05T10:02:51Z</time>
      </trkpt>
      <trkpt lat="47.70996" lon="6.0914">
        <ele>324.61</ele>
        <time>2022-01-05T10:03:11Z</time>
      </trkpt>
      <trkpt lat="47.70955" lon="6.0914">
        <ele>322.6</ele>
        <time>2022-01-05T10:03:35Z</time>
      </trkpt>
      <trkpt lat="47.70962" lon="6.09107">
        <ele>326.41</ele>
        <time>2022-01-05T10:03:51Z</time>
      </trkpt>
      <trkpt lat="47.70962" lon="6.09079">
        <ele>326.6</ele>
        <time>2022-01-05T10:04:03Z</time>
      </trkpt>
      <trkpt lat="47.70965" lon="6.09045">
        <ele>325.5</ele>
        <time>2022-01-05T10:04:13Z</time>
      </trkpt>
      <trkpt lat="47.70929" lon="6.09007">
        <ele>326.25</ele>
        <time>2022-01-05T10:04:43Z</time>
      </trkpt>
      <trkpt lat="47.70898" lon="6.08996">
        <ele>327.8</ele>
        <time>2022-01-05T10:05:02Z</time>
      </trkpt>
      <trkpt lat="47.70878" lon="6.08994">
        <ele>329.43</ele>
        <time>2022-01-05T10:05:09Z</time>
      </trkpt>
      <trkpt lat="47.70861" lon="6.08979">
        <ele>328.75</ele>
        <time>2022-01-05T10:05:23Z</time>
      </trkpt>
      <trkpt lat="47.70841" lon="6.08968">
        <ele>329.43</ele>
        <time>2022-01-05T10:05:36Z</time>
      </trkpt>
      <trkpt lat="47.70822" lon="6.08965">
        <ele>331.38</ele>
        <time>2022-01-05T10:05:43Z</time>
      </trkpt>
      <trkpt lat="47.70801" lon="6.08967">
        <ele>332.15</ele>
        <time>2022-01-05T10:05:52Z</time>
      </trkpt>
      <trkpt lat="47.70781" lon="6.08963">
        <ele>331.35</ele>
        <time>2022-01-05T10:06:01Z</time>
      </trkpt>
      <trkpt lat="47.70752" lon="6.08942">
        <ele>331.5</ele>
        <time>2022-01-05T10:06:23Z</time>
      </trkpt>
      <trkpt lat="47.70733" lon="6.0893">
        <ele>332.2</ele>
        <time>2022-01-05T10:06:34Z</time>
      </trkpt>
      <trkpt lat="47.7072" lon="6.08912">
        <ele>334.55</ele>
        <time>2022-01-05T10:06:43Z</time>
      </trkpt>
      <trkpt lat="47.707" lon="6.08906">
        <ele>335.72</ele>
        <time>2022-01-05T10:06:47Z</time>
      </trkpt>
      <trkpt lat="47.70679" lon="6.08897">
        <ele>335.81</ele>
        <time>2022-01-05T10:06:51Z</time>
      </trkpt>
      <trkpt lat="47.70663" lon="6.08885">
        <ele>336.16</ele>
        <time>2022-01-05T10:06:55Z</time>
      </trkpt>
      <trkpt lat="47.70645" lon="6.08867">
        <ele>336.35</ele>
        <time>2022-01-05T10:06:59Z</time>
      </trkpt>
      <trkpt lat="47.70628" lon="6.0885">
        <ele>335.96</ele>
        <time>2022-01-05T10:07:03Z</time>
      </trkpt>
      <trkpt lat="47.7062" lon="6.08824">
        <ele>335.94</ele>
        <time>2022-01-05T10:07:09Z</time>
      </trkpt>
      <trkpt lat="47.70603" lon="6.08807">
        <ele>334.56</ele>
        <time>2022-01-05T10:07:14Z</time>
      </trkpt>
      <trkpt lat="47.70584" lon="6.08799">
        <ele>333.71</ele>
        <time>2022-01-05T10:07:18Z</time>
      </trkpt>
      <trkpt lat="47.7057" lon="6.08779">
        <ele>333.45</ele>
        <time>2022-01-05T10:07:23Z</time>
      </trkpt>
      <trkpt lat="47.70577" lon="6.08753">
        <ele>319.23</ele>
        <time>2022-01-05T10:08:09Z</time>
      </trkpt>
      <trkpt lat="47.70567" lon="6.08728">
        <ele>317.43</ele>
        <time>2022-01-05T10:08:15Z</time>
      </trkpt>
      <trkpt lat="47.70547" lon="6.08709">
        <ele>319.47</ele>
        <time>2022-01-05T10:08:19Z</time>
      </trkpt>
      <trkpt lat="47.70531" lon="6.08692">
        <ele>321.85</ele>
        <time>2022-01-05T10:08:22Z</time>
      </trkpt>
      <trkpt lat="47.70512" lon="6.08675">
        <ele>323.71</ele>
        <time>2022-01-05T10:08:26Z</time>
      </trkpt>
      <trkpt lat="47.70493" lon="6.08653">
        <ele>325.85</ele>
        <time>2022-01-05T10:08:31Z</time>
      </trkpt>
      <trkpt lat="47.70473" lon="6.08641">
        <ele>326.58</ele>
        <time>2022-01-05T10:08:34Z</time>
      </trkpt>
      <trkpt lat="47.70455" lon="6.08625">
        <ele>327.43</ele>
        <time>2022-01-05T10:08:38Z</time>
      </trkpt>
      <trkpt lat="47.70439" lon="6.08611">
        <ele>327.59</ele>
        <time>2022-01-05T10:08:42Z</time>
      </trkpt>
      <trkpt lat="47.7042" lon="6.08593">
        <ele>328.53</ele>
        <time>2022-01-05T10:08:45Z</time>
      </trkpt>
      <trkpt lat="47.70397" lon="6.0858">
        <ele>330.4</ele>
        <time>2022-01-05T10:08:48Z</time>
      </trkpt>
      <trkpt lat="47.70374" lon="6.08571">
        <ele>331.52</ele>
        <time>2022-01-05T10:08:51Z</time>
      </trkpt>
      <trkpt lat="47.70347" lon="6.08563">
        <ele>332.48</ele>
        <time>2022-01-05T10:08:54Z</time>
      </trkpt>
      <trkpt lat="47.70327" lon="6.08553">
        <ele>332.63</ele>
        <time>2022-01-05T10:08:56Z</time>
      </trkpt>
      <trkpt lat="47.70308" lon="6.0854">
        <ele>333.14</ele>
        <time>2022-01-05T10:08:59Z</time>
      </trkpt>
      <trkpt lat="47.7029" lon="6.08521">
        <ele>332.61</ele>
        <time>2022-01-05T10:09:03Z</time>
      </trkpt>
      <trkpt lat="47.70278" lon="6.08498">
        <ele>331.69</ele>
        <time>2022-01-05T10:09:08Z</time>
      </trkpt>
      <trkpt lat="47.70263" lon="6.08476">
        <ele>331.92</ele>
        <time>2022-01-05T10:09:12Z</time>
      </trkpt>
      <trkpt lat="47.70242" lon="6.08463">
        <ele>332.22</ele>
        <time>2022-01-05T10:09:15Z</time>
      </trkpt>
      <trkpt lat="47.70223" lon="6.08456">
        <ele>331.59</ele>
        <time>2022-01-05T10:09:17Z</time>
      </trkpt>
      <trkpt lat="47.70204" lon="6.0844">
        <ele>329.79</ele>
        <time>2022-01-05T10:09:20Z</time>
      </trkpt>
      <trkpt lat="47.70185" lon="6.08425">
        <ele>328.08</ele>
        <time>2022-01-05T10:09:23Z</time>
      </trkpt>
      <trkpt lat="47.70177" lon="6.08401">
        <ele>326.21</ele>
        <time>2022-01-05T10:09:27Z</time>
      </trkpt>
      <trkpt lat="47.70171" lon="6.08367">
        <ele>324.6</ele>
        <time>2022-01-05T10:09:31Z</time>
      </trkpt>
      <trkpt lat="47.70162" lon="6.08336">
        <ele>322.24</ele>
        <time>2022-01-05T10:09:35Z</time>
      </trkpt>
      <trkpt lat="47.70157" lon="6.08307">
        <ele>320.94</ele>
        <time>2022-01-05T10:09:38Z</time>
      </trkpt>
      <trkpt lat="47.70153" lon="6.08278">
        <ele>319.54</ele>
        <time>2022-01-05T10:09:41Z</time>
      </trkpt>
      <trkpt lat="47.70147" lon="6.08249">
        <ele>318.39</ele>
        <time>2022-01-05T10:09:44Z</time>
      </trkpt>
      <trkpt lat="47.70138" lon="6.0822">
        <ele>316.37</ele>
        <time>2022-01-05T10:09:47Z</time>
      </trkpt>
      <trkpt lat="47.70121" lon="6.08187">
        <ele>313.34</ele>
        <time>2022-01-05T10:09:50Z</time>
      </trkpt>
      <trkpt lat="47.70108" lon="6.08165">
        <ele>310.17</ele>
        <time>2022-01-05T10:09:52Z</time>
      </trkpt>
      <trkpt lat="47.70093" lon="6.08145">
        <ele>306.28</ele>
        <time>2022-01-05T10:09:54Z</time>
      </trkpt>
      <trkpt lat="47.7008" lon="6.08125">
        <ele>302.26</ele>
        <time>2022-01-05T10:09:56Z</time>
      </trkpt>
      <trkpt lat="47.70067" lon="6.08106">
        <ele>297.9</ele>
        <time>2022-01-05T10:09:58Z</time>
      </trkpt>
      <trkpt lat="47.70051" lon="6.08077">
        <ele>292.37</ele>
        <time>2022-01-05T10:10:01Z</time>
      </trkpt>
      <trkpt lat="47.70044" lon="6.08048">
        <ele>288.03</ele>
        <time>2022-01-05T10:10:04Z</time>
      </trkpt>
      <trkpt lat="47.70051" lon="6.08016">
        <ele>285.37</ele>
        <time>2022-01-05T10:10:07Z</time>
      </trkpt>
      <trkpt lat="47.70059" lon="6.07991">
        <ele>284.28</ele>
        <time>2022-01-05T10:10:09Z</time>
      </trkpt>
      <trkpt lat="47.70067" lon="6.07966">
        <ele>283.43</ele>
        <time>2022-01-05T10:10:11Z</time>
      </trkpt>
      <trkpt lat="47.70077" lon="6.07936">
        <ele>281.9</ele>
        <time>2022-01-05T10:10:14Z</time>
      </trkpt>
      <trkpt lat="47.70067" lon="6.0791">
        <ele>280.51</ele>
        <time>2022-01-05T10:10:19Z</time>
      </trkpt>
      <trkpt lat="47.7007" lon="6.07878">
        <ele>279.16</ele>
        <time>2022-01-05T10:10:22Z</time>
      </trkpt>
      <trkpt lat="47.70064" lon="6.0785">
        <ele>277.92</ele>
        <time>2022-01-05T10:10:30Z</time>
      </trkpt>
      <trkpt lat="47.70059" lon="6.07824">
        <ele>278.77</ele>
        <time>2022-01-05T10:10:36Z</time>
      </trkpt>
      <trkpt lat="47.7004" lon="6.0781">
        <ele>282.39</ele>
        <time>2022-01-05T10:10:43Z</time>
      </trkpt>
      <trkpt lat="47.70022" lon="6.07801">
        <ele>282.55</ele>
        <time>2022-01-05T10:10:49Z</time>
      </trkpt>
      <trkpt lat="47.70005" lon="6.07787">
        <ele>282.39</ele>
        <time>2022-01-05T10:10:55Z</time>
      </trkpt>
      <trkpt lat="47.69986" lon="6.07775">
        <ele>283.99</ele>
        <time>2022-01-05T10:11:01Z</time>
      </trkpt>
      <trkpt lat="47.6997" lon="6.07757">
        <ele>283.98</ele>
        <time>2022-01-05T10:11:05Z</time>
      </trkpt>
      <trkpt lat="47.69953" lon="6.07741">
        <ele>282.23</ele>
        <time>2022-01-05T10:11:10Z</time>
      </trkpt>
      <trkpt lat="47.69961" lon="6.07715">
        <ele>281.41</ele>
        <time>2022-01-05T10:11:16Z</time>
      </trkpt>
      <trkpt lat="47.69975" lon="6.07694">
        <ele>281.73</ele>
        <time>2022-01-05T10:11:20Z</time>
      </trkpt>
      <trkpt lat="47.6997" lon="6.07664">
        <ele>283.53</ele>
        <time>2022-01-05T10:11:27Z</time>
      </trkpt>
      <trkpt lat="47.69973" lon="6.07637">
        <ele>283.83</ele>
        <time>2022-01-05T10:11:35Z</time>
      </trkpt>
      <trkpt lat="47.69959" lon="6.07615">
        <ele>282.71</ele>
        <time>2022-01-05T10:11:43Z</time>
      </trkpt>
      <trkpt lat="47.69945" lon="6.07598">
        <ele>284.11</ele>
        <time>2022-01-05T10:11:48Z</time>
      </trkpt>
      <trkpt lat="47.69928" lon="6.07587">
        <ele>283.94</ele>
        <time>2022-01-05T10:11:52Z</time>
      </trkpt>
      <trkpt lat="47.69908" lon="6.07575">
        <ele>282.54</ele>
        <time>2022-01-05T10:11:57Z</time>
      </trkpt>
      <trkpt lat="47.69891" lon="6.07563">
        <ele>281.58</ele>
        <time>2022-01-05T10:12:02Z</time>
      </trkpt>
      <trkpt lat="47.69872" lon="6.07551">
        <ele>282.21</ele>
        <time>2022-01-05T10:12:08Z</time>
      </trkpt>
      <trkpt lat="47.69855" lon="6.07536">
        <ele>282.64</ele>
        <time>2022-01-05T10:12:14Z</time>
      </trkpt>
      <trkpt lat="47.69852" lon="6.0751">
        <ele>283.21</ele>
        <time>2022-01-05T10:12:23Z</time>
      </trkpt>
      <trkpt lat="47.69838" lon="6.07488">
        <ele>281.89</ele>
        <time>2022-01-05T10:12:31Z</time>
      </trkpt>
      <trkpt lat="47.6982" lon="6.07473">
        <ele>280.59</ele>
        <time>2022-01-05T10:12:36Z</time>
      </trkpt>
      <trkpt lat="47.69799" lon="6.07465">
        <ele>276.24</ele>
        <time>2022-01-05T10:12:40Z</time>
      </trkpt>
      <trkpt lat="47.69787" lon="6.07443">
        <ele>274.66</ele>
        <time>2022-01-05T10:12:47Z</time>
      </trkpt>
      <trkpt lat="47.6978" lon="6.07417">
        <ele>276.81</ele>
        <time>2022-01-05T10:12:56Z</time>
      </trkpt>
      <trkpt lat="47.69781" lon="6.07387">
        <ele>279.07</ele>
        <time>2022-01-05T10:13:02Z</time>
      </trkpt>
      <trkpt lat="47.69778" lon="6.07356">
        <ele>280.36</ele>
        <time>2022-01-05T10:13:08Z</time>
      </trkpt>
      <trkpt lat="47.69779" lon="6.07328">
        <ele>280.89</ele>
        <time>2022-01-05T10:13:13Z</time>
      </trkpt>
      <trkpt lat="47.69774" lon="6.073">
        <ele>282.43</ele>
        <time>2022-01-05T10:13:21Z</time>
      </trkpt>
      <trkpt lat="47.69768" lon="6.07273">
        <ele>281.4</ele>
        <time>2022-01-05T10:13:31Z</time>
      </trkpt>
      <trkpt lat="47.6975" lon="6.07259">
        <ele>282.08</ele>
        <time>2022-01-05T10:13:36Z</time>
      </trkpt>
      <trkpt lat="47.69764" lon="6.07193">
        <ele>282.95</ele>
        <time>2022-01-05T10:13:52Z</time>
      </trkpt>
      <trkpt lat="47.6977" lon="6.07168">
        <ele>282.68</ele>
        <time>2022-01-05T10:13:55Z</time>
      </trkpt>
      <trkpt lat="47.69779" lon="6.07141">
        <ele>282.26</ele>
        <time>2022-01-05T10:13:59Z</time>
      </trkpt>
      <trkpt lat="47.69788" lon="6.07113">
        <ele>281.11</ele>
        <time>2022-01-05T10:14:03Z</time>
      </trkpt>
      <trkpt lat="47.69785" lon="6.07086">
        <ele>277.71</ele>
        <time>2022-01-05T10:14:10Z</time>
      </trkpt>
      <trkpt lat="47.69782" lon="6.07059">
        <ele>277.98</ele>
        <time>2022-01-05T10:14:21Z</time>
      </trkpt>
      <trkpt lat="47.69767" lon="6.0704">
        <ele>279.54</ele>
        <time>2022-01-05T10:14:31Z</time>
      </trkpt>
      <trkpt lat="47.69754" lon="6.0702">
        <ele>280.3</ele>
        <time>2022-01-05T10:14:40Z</time>
      </trkpt>
      <trkpt lat="47.69747" lon="6.06995">
        <ele>280.4</ele>
        <time>2022-01-05T10:14:50Z</time>
      </trkpt>
      <trkpt lat="47.69737" lon="6.06971">
        <ele>281.2</ele>
        <time>2022-01-05T10:15:02Z</time>
      </trkpt>
      <trkpt lat="47.69732" lon="6.06942">
        <ele>282.94</ele>
        <time>2022-01-05T10:15:13Z</time>
      </trkpt>
      <trkpt lat="47.69718" lon="6.06924">
        <ele>281.26</ele>
        <time>2022-01-05T10:15:20Z</time>
      </trkpt>
      <trkpt lat="47.69712" lon="6.06894">
        <ele>279.95</ele>
        <time>2022-01-05T10:15:35Z</time>
      </trkpt>
      <trkpt lat="47.69721" lon="6.06869">
        <ele>279.24</ele>
        <time>2022-01-05T10:15:40Z</time>
      </trkpt>
      <trkpt lat="47.69718" lon="6.06841">
        <ele>280.72</ele>
        <time>2022-01-05T10:15:49Z</time>
      </trkpt>
      <trkpt lat="47.69701" lon="6.06828">
        <ele>278.23</ele>
        <time>2022-01-05T10:15:56Z</time>
      </trkpt>
      <trkpt lat="47.69682" lon="6.06823">
        <ele>277.74</ele>
        <time>2022-01-05T10:16:04Z</time>
      </trkpt>
      <trkpt lat="47.69681" lon="6.06794">
        <ele>278.96</ele>
        <time>2022-01-05T10:16:15Z</time>
      </trkpt>
      <trkpt lat="47.6968" lon="6.06756">
        <ele>277.9</ele>
        <time>2022-01-05T10:16:27Z</time>
      </trkpt>
      <trkpt lat="47.69676" lon="6.06715">
        <ele>276.65</ele>
        <time>2022-01-05T10:16:41Z</time>
      </trkpt>
      <trkpt lat="47.69672" lon="6.06688">
        <ele>278.64</ele>
        <time>2022-01-05T10:16:50Z</time>
      </trkpt>
      <trkpt lat="47.69671" lon="6.06647">
        <ele>279.15</ele>
        <time>2022-01-05T10:17:02Z</time>
      </trkpt>
      <trkpt lat="47.69675" lon="6.06618">
        <ele>281.78</ele>
        <time>2022-01-05T10:17:09Z</time>
      </trkpt>
      <trkpt lat="47.69674" lon="6.06588">
        <ele>282.95</ele>
        <time>2022-01-05T10:17:15Z</time>
      </trkpt>
      <trkpt lat="47.69678" lon="6.06559">
        <ele>279.29</ele>
        <time>2022-01-05T10:17:19Z</time>
      </trkpt>
      <trkpt lat="47.69679" lon="6.06528">
        <ele>276.02</ele>
        <time>2022-01-05T10:17:23Z</time>
      </trkpt>
      <trkpt lat="47.69683" lon="6.06498">
        <ele>275.4</ele>
        <time>2022-01-05T10:17:26Z</time>
      </trkpt>
      <trkpt lat="47.69685" lon="6.0647">
        <ele>275.69</ele>
        <time>2022-01-05T10:17:29Z</time>
      </trkpt>
      <trkpt lat="47.69687" lon="6.06439">
        <ele>276.32</ele>
        <time>2022-01-05T10:17:33Z</time>
      </trkpt>
      <trkpt lat="47.69687" lon="6.06412">
        <ele>277.06</ele>
        <time>2022-01-05T10:17:37Z</time>
      </trkpt>
      <trkpt lat="47.69686" lon="6.06382">
        <ele>276.9</ele>
        <time>2022-01-05T10:17:42Z</time>
      </trkpt>
      <trkpt lat="47.69682" lon="6.06355">
        <ele>276.7</ele>
        <time>2022-01-05T10:17:49Z</time>
      </trkpt>
      <trkpt lat="47.69676" lon="6.06328">
        <ele>278.57</ele>
        <time>2022-01-05T10:17:56Z</time>
      </trkpt>
      <trkpt lat="47.69679" lon="6.06297">
        <ele>279.94</ele>
        <time>2022-01-05T10:18:01Z</time>
      </trkpt>
      <trkpt lat="47.69682" lon="6.06267">
        <ele>280.55</ele>
        <time>2022-01-05T10:18:05Z</time>
      </trkpt>
      <trkpt lat="47.6968" lon="6.06238">
        <ele>280.86</ele>
        <time>2022-01-05T10:18:10Z</time>
      </trkpt>
      <trkpt lat="47.69683" lon="6.06209">
        <ele>280.93</ele>
        <time>2022-01-05T10:18:14Z</time>
      </trkpt>
      <trkpt lat="47.69687" lon="6.06178">
        <ele>280.82</ele>
        <time>2022-01-05T10:18:18Z</time>
      </trkpt>
      <trkpt lat="47.69688" lon="6.06148">
        <ele>280.83</ele>
        <time>2022-01-05T10:18:23Z</time>
      </trkpt>
      <trkpt lat="47.69689" lon="6.06119">
        <ele>281.3</ele>
        <time>2022-01-05T10:18:28Z</time>
      </trkpt>
      <trkpt lat="47.69693" lon="6.0609">
        <ele>281.7</ele>
        <time>2022-01-05T10:18:32Z</time>
      </trkpt>
      <trkpt lat="47.69703" lon="6.0606">
        <ele>282</ele>
        <time>2022-01-05T10:18:35Z</time>
      </trkpt>
      <trkpt lat="47.69719" lon="6.06027">
        <ele>281.81</ele>
        <time>2022-01-05T10:18:38Z</time>
      </trkpt>
      <trkpt lat="47.69734" lon="6.05996">
        <ele>281.63</ele>
        <time>2022-01-05T10:18:41Z</time>
      </trkpt>
      <trkpt lat="47.69748" lon="6.05967">
        <ele>280.52</ele>
        <time>2022-01-05T10:18:44Z</time>
      </trkpt>
      <trkpt lat="47.69761" lon="6.05939">
        <ele>278.85</ele>
        <time>2022-01-05T10:18:47Z</time>
      </trkpt>
      <trkpt lat="47.69773" lon="6.05912">
        <ele>277.01</ele>
        <time>2022-01-05T10:18:50Z</time>
      </trkpt>
      <trkpt lat="47.69784" lon="6.05886">
        <ele>275.27</ele>
        <time>2022-01-05T10:18:53Z</time>
      </trkpt>
      <trkpt lat="47.69796" lon="6.0586">
        <ele>273.77</ele>
        <time>2022-01-05T10:18:56Z</time>
      </trkpt>
      <trkpt lat="47.69807" lon="6.0583">
        <ele>272</ele>
        <time>2022-01-05T10:19:00Z</time>
      </trkpt>
      <trkpt lat="47.69817" lon="6.05803">
        <ele>269.61</ele>
        <time>2022-01-05T10:19:09Z</time>
      </trkpt>
      <trkpt lat="47.69831" lon="6.05781">
        <ele>267.18</ele>
        <time>2022-01-05T10:19:16Z</time>
      </trkpt>
      <trkpt lat="47.69846" lon="6.05764">
        <ele>261.69</ele>
        <time>2022-01-05T10:20:20Z</time>
      </trkpt>
      <trkpt lat="47.69853" lon="6.05734">
        <ele>260.56</ele>
        <time>2022-01-05T10:20:26Z</time>
      </trkpt>
      <trkpt lat="47.69842" lon="6.05712">
        <ele>261.75</ele>
        <time>2022-01-05T10:20:31Z</time>
      </trkpt>
      <trkpt lat="47.69821" lon="6.05714">
        <ele>261.47</ele>
        <time>2022-01-05T10:20:36Z</time>
      </trkpt>
      <trkpt lat="47.69801" lon="6.05713">
        <ele>261.08</ele>
        <time>2022-01-05T10:20:40Z</time>
      </trkpt>
      <trkpt lat="47.69783" lon="6.05708">
        <ele>260.52</ele>
        <time>2022-01-05T10:20:44Z</time>
      </trkpt>
      <trkpt lat="47.69765" lon="6.057">
        <ele>259.79</ele>
        <time>2022-01-05T10:20:49Z</time>
      </trkpt>
      <trkpt lat="47.69746" lon="6.05691">
        <ele>259.43</ele>
        <time>2022-01-05T10:20:54Z</time>
      </trkpt>
      <trkpt lat="47.69725" lon="6.0568">
        <ele>260.25</ele>
        <time>2022-01-05T10:21:01Z</time>
      </trkpt>
      <trkpt lat="47.69706" lon="6.05673">
        <ele>260.69</ele>
        <time>2022-01-05T10:21:07Z</time>
      </trkpt>
      <trkpt lat="47.69688" lon="6.05665">
        <ele>261.5</ele>
        <time>2022-01-05T10:21:13Z</time>
      </trkpt>
      <trkpt lat="47.69669" lon="6.05656">
        <ele>262.72</ele>
        <time>2022-01-05T10:21:20Z</time>
      </trkpt>
      <trkpt lat="47.6965" lon="6.05647">
        <ele>263.31</ele>
        <time>2022-01-05T10:21:26Z</time>
      </trkpt>
      <trkpt lat="47.6963" lon="6.0564">
        <ele>262.7</ele>
        <time>2022-01-05T10:21:31Z</time>
      </trkpt>
      <trkpt lat="47.69612" lon="6.05631">
        <ele>263.35</ele>
        <time>2022-01-05T10:21:36Z</time>
      </trkpt>
      <trkpt lat="47.69592" lon="6.05615">
        <ele>263.37</ele>
        <time>2022-01-05T10:21:41Z</time>
      </trkpt>
      <trkpt lat="47.69576" lon="6.05594">
        <ele>262.82</ele>
        <time>2022-01-05T10:21:46Z</time>
      </trkpt>
      <trkpt lat="47.69555" lon="6.05585">
        <ele>262.73</ele>
        <time>2022-01-05T10:21:51Z</time>
      </trkpt>
      <trkpt lat="47.69539" lon="6.05567">
        <ele>261.65</ele>
        <time>2022-01-05T10:21:55Z</time>
      </trkpt>
      <trkpt lat="47.69526" lon="6.05544">
        <ele>261.28</ele>
        <time>2022-01-05T10:21:59Z</time>
      </trkpt>
      <trkpt lat="47.69512" lon="6.05525">
        <ele>260.63</ele>
        <time>2022-01-05T10:22:02Z</time>
      </trkpt>
      <trkpt lat="47.69496" lon="6.05505">
        <ele>259.36</ele>
        <time>2022-01-05T10:22:05Z</time>
      </trkpt>
      <trkpt lat="47.69478" lon="6.05486">
        <ele>258.35</ele>
        <time>2022-01-05T10:22:08Z</time>
      </trkpt>
      <trkpt lat="47.69459" lon="6.05468">
        <ele>258.1</ele>
        <time>2022-01-05T10:22:11Z</time>
      </trkpt>
      <trkpt lat="47.69439" lon="6.05451">
        <ele>257.68</ele>
        <time>2022-01-05T10:22:14Z</time>
      </trkpt>
      <trkpt lat="47.69421" lon="6.05435">
        <ele>257.49</ele>
        <time>2022-01-05T10:22:17Z</time>
      </trkpt>
      <trkpt lat="47.69404" lon="6.0542">
        <ele>257.63</ele>
        <time>2022-01-05T10:22:20Z</time>
      </trkpt>
      <trkpt lat="47.69387" lon="6.05406">
        <ele>258.12</ele>
        <time>2022-01-05T10:22:23Z</time>
      </trkpt>
      <trkpt lat="47.6937" lon="6.05393">
        <ele>258.1</ele>
        <time>2022-01-05T10:22:26Z</time>
      </trkpt>
      <trkpt lat="47.69353" lon="6.05378">
        <ele>257.88</ele>
        <time>2022-01-05T10:22:29Z</time>
      </trkpt>
      <trkpt lat="47.69333" lon="6.05364">
        <ele>256.7</ele>
        <time>2022-01-05T10:22:32Z</time>
      </trkpt>
      <trkpt lat="47.69316" lon="6.05351">
        <ele>255.63</ele>
        <time>2022-01-05T10:22:35Z</time>
      </trkpt>
      <trkpt lat="47.69295" lon="6.05333">
        <ele>255.37</ele>
        <time>2022-01-05T10:22:39Z</time>
      </trkpt>
      <trkpt lat="47.69275" lon="6.05315">
        <ele>255.28</ele>
        <time>2022-01-05T10:22:43Z</time>
      </trkpt>
      <trkpt lat="47.69258" lon="6.053">
        <ele>255.33</ele>
        <time>2022-01-05T10:22:46Z</time>
      </trkpt>
      <trkpt lat="47.69239" lon="6.0528">
        <ele>254.81</ele>
        <time>2022-01-05T10:22:50Z</time>
      </trkpt>
      <trkpt lat="47.69225" lon="6.0526">
        <ele>254.94</ele>
        <time>2022-01-05T10:22:54Z</time>
      </trkpt>
      <trkpt lat="47.69207" lon="6.05242">
        <ele>255.24</ele>
        <time>2022-01-05T10:22:58Z</time>
      </trkpt>
      <trkpt lat="47.69192" lon="6.05225">
        <ele>255.56</ele>
        <time>2022-01-05T10:23:02Z</time>
      </trkpt>
      <trkpt lat="47.69174" lon="6.0521">
        <ele>256.44</ele>
        <time>2022-01-05T10:23:06Z</time>
      </trkpt>
      <trkpt lat="47.69159" lon="6.05195">
        <ele>257.61</ele>
        <time>2022-01-05T10:23:10Z</time>
      </trkpt>
      <trkpt lat="47.69143" lon="6.05176">
        <ele>258.25</ele>
        <time>2022-01-05T10:23:14Z</time>
      </trkpt>
      <trkpt lat="47.69128" lon="6.05159">
        <ele>259.19</ele>
        <time>2022-01-05T10:23:18Z</time>
      </trkpt>
      <trkpt lat="47.69113" lon="6.05143">
        <ele>260.4</ele>
        <time>2022-01-05T10:23:22Z</time>
      </trkpt>
      <trkpt lat="47.69097" lon="6.05126">
        <ele>260.83</ele>
        <time>2022-01-05T10:23:26Z</time>
      </trkpt>
      <trkpt lat="47.69079" lon="6.05113">
        <ele>260.37</ele>
        <time>2022-01-05T10:23:29Z</time>
      </trkpt>
      <trkpt lat="47.69056" lon="6.051">
        <ele>258.79</ele>
        <time>2022-01-05T10:23:32Z</time>
      </trkpt>
      <trkpt lat="47.69031" lon="6.05085">
        <ele>256.76</ele>
        <time>2022-01-05T10:23:35Z</time>
      </trkpt>
      <trkpt lat="47.69012" lon="6.05076">
        <ele>255.3</ele>
        <time>2022-01-05T10:23:37Z</time>
      </trkpt>
      <trkpt lat="47.68993" lon="6.05065">
        <ele>253.36</ele>
        <time>2022-01-05T10:23:39Z</time>
      </trkpt>
      <trkpt lat="47.68973" lon="6.05054">
        <ele>250.9</ele>
        <time>2022-01-05T10:23:41Z</time>
      </trkpt>
      <trkpt lat="47.68952" lon="6.05042">
        <ele>248.46</ele>
        <time>2022-01-05T10:23:43Z</time>
      </trkpt>
      <trkpt lat="47.68934" lon="6.05028">
        <ele>246.78</ele>
        <time>2022-01-05T10:23:45Z</time>
      </trkpt>
      <trkpt lat="47.68918" lon="6.05013">
        <ele>245.23</ele>
        <time>2022-01-05T10:23:47Z</time>
      </trkpt>
      <trkpt lat="47.68902" lon="6.04995">
        <ele>243.77</ele>
        <time>2022-01-05T10:23:49Z</time>
      </trkpt>
      <trkpt lat="47.68887" lon="6.04974">
        <ele>242.38</ele>
        <time>2022-01-05T10:23:51Z</time>
      </trkpt>
      <trkpt lat="47.68874" lon="6.04953">
        <ele>240.86</ele>
        <time>2022-01-05T10:23:53Z</time>
      </trkpt>
      <trkpt lat="47.68855" lon="6.04923">
        <ele>239.71</ele>
        <time>2022-01-05T10:23:56Z</time>
      </trkpt>
      <trkpt lat="47.6884" lon="6.04898">
        <ele>238.46</ele>
        <time>2022-01-05T10:23:59Z</time>
      </trkpt>
      <trkpt lat="47.68825" lon="6.04881">
        <ele>237.93</ele>
        <time>2022-01-05T10:24:04Z</time>
      </trkpt>
      <trkpt lat="47.68806" lon="6.04875">
        <ele>237.63</ele>
        <time>2022-01-05T10:24:11Z</time>
      </trkpt>
      <trkpt lat="47.68787" lon="6.04869">
        <ele>238.67</ele>
        <time>2022-01-05T10:24:17Z</time>
      </trkpt>
      <trkpt lat="47.68778" lon="6.04845">
        <ele>238.13</ele>
        <time>2022-01-05T10:24:22Z</time>
      </trkpt>
      <trkpt lat="47.68767" lon="6.04818">
        <ele>237.95</ele>
        <time>2022-01-05T10:24:28Z</time>
      </trkpt>
      <trkpt lat="47.68757" lon="6.0479">
        <ele>237.85</ele>
        <time>2022-01-05T10:24:34Z</time>
      </trkpt>
      <trkpt lat="47.68749" lon="6.04763">
        <ele>237.63</ele>
        <time>2022-01-05T10:24:40Z</time>
      </trkpt>
      <trkpt lat="47.68743" lon="6.04738">
        <ele>238.62</ele>
        <time>2022-01-05T10:24:46Z</time>
      </trkpt>
      <trkpt lat="47.68736" lon="6.0471">
        <ele>238.27</ele>
        <time>2022-01-05T10:24:52Z</time>
      </trkpt>
      <trkpt lat="47.68726" lon="6.04686">
        <ele>238.5</ele>
        <time>2022-01-05T10:24:57Z</time>
      </trkpt>
      <trkpt lat="47.68713" lon="6.0466">
        <ele>239.17</ele>
        <time>2022-01-05T10:25:03Z</time>
      </trkpt>
      <trkpt lat="47.68701" lon="6.04639">
        <ele>239.82</ele>
        <time>2022-01-05T10:25:08Z</time>
      </trkpt>
      <trkpt lat="47.68692" lon="6.04613">
        <ele>240.6</ele>
        <time>2022-01-05T10:25:13Z</time>
      </trkpt>
      <trkpt lat="47.68684" lon="6.04582">
        <ele>241.2</ele>
        <time>2022-01-05T10:25:18Z</time>
      </trkpt>
      <trkpt lat="47.68673" lon="6.04558">
        <ele>241.08</ele>
        <time>2022-01-05T10:25:22Z</time>
      </trkpt>
      <trkpt lat="47.68659" lon="6.04539">
        <ele>240.46</ele>
        <time>2022-01-05T10:25:26Z</time>
      </trkpt>
      <trkpt lat="47.68638" lon="6.04534">
        <ele>240.06</ele>
        <time>2022-01-05T10:25:30Z</time>
      </trkpt>
      <trkpt lat="47.68624" lon="6.04552">
        <ele>239.82</ele>
        <time>2022-01-05T10:25:37Z</time>
      </trkpt>
    </trkseg>
  </trk>
</gpx>